Observation data for Segovia 7SSW on 10/14/2019      Previous  Date       Current Mesonet Observations  Soil Data  Daily Summary Page  Observations in Plain Language
KSE2 140500Z 22004KT 18/09 A3005 RMK A01 T01820086  RH  054%=      5-min Rain = 0
KSE2 140501Z 21004KT 18/09 A3005 RMK A01 T01820087  RH  054%=      5-min Rain = 0
KSE2 140502Z 22004KT 18/09 A3005 RMK A01 T01810087  RH  054%=      5-min Rain = 0
KSE2 140503Z 21004KT 18/09 A3005 RMK A01 T01810087  RH  054%=      5-min Rain = 0
KSE2 140504Z 21004KT 18/09 A3005 RMK A01 T01810086  RH  054%=      5-min Rain = 0
KSE2 140505Z 21004KT 18/09 A3005 RMK A01 T01820087  RH  054%=      5-min Rain = 0
KSE2 140506Z 21005KT 18/09 A3005 RMK A01 T01810086  RH  054%=      5-min Rain = 0
KSE2 140507Z 21005KT 18/09 A3005 RMK A01 T01810086  RH  054%=      5-min Rain = 0
KSE2 140508Z 21004KT 18/09 A3005 RMK A01 T01810086  RH  054%=      5-min Rain = 0
KSE2 140509Z 21005KT 18/09 A3005 RMK A01 T01810086  RH  054%=      5-min Rain = 0
KSE2 140510Z 21005KT 18/09 A3005 RMK A01 T01820086  RH  053%=      5-min Rain = 0
KSE2 140511Z 21005KT 18/09 A3005 RMK A01 T01820086  RH  053%=      5-min Rain = 0
KSE2 140512Z 21005KT 18/09 A3005 RMK A01 T01820086  RH  053%=      5-min Rain = 0
KSE2 140513Z 21005KT 18/09 A3005 RMK A01 T01820086  RH  053%=      5-min Rain = 0
KSE2 140514Z 21005KT 18/09 A3005 RMK A01 T01820086  RH  053%=      5-min Rain = 0
KSE2 140515Z 21005KT 18/09 A3005 RMK A01 T01820086  RH  053%=      5-min Rain = 0
KSE2 140516Z 21005KT 18/09 A3005 RMK A01 T01820086  RH  053%=      5-min Rain = 0
KSE2 140517Z 20005KT 18/09 A3005 RMK A01 T01820086  RH  053%=      5-min Rain = 0
KSE2 140518Z 20005KT 18/09 A3005 RMK A01 T01820086  RH  053%=      5-min Rain = 0
KSE2 140519Z 20005KT 18/09 A3005 RMK A01 T01820086  RH  053%=      5-min Rain = 0
KSE2 140520Z 20005KT 18/09 A3005 RMK A01 T01830086  RH  053%=      5-min Rain = 0
KSE2 140521Z 20005KT 18/09 A3005 RMK A01 T01830086  RH  053%=      5-min Rain = 0
KSE2 140522Z 20004KT 18/09 A3005 RMK A01 T01830086  RH  053%=      5-min Rain = 0
KSE2 140523Z 21004KT 18/09 A3005 RMK A01 T01830086  RH  053%=      5-min Rain = 0
KSE2 140524Z 21004KT 18/09 A3005 RMK A01 T01830087  RH  053%=      5-min Rain = 0
KSE2 140525Z 21005KT 18/09 A3005 RMK A01 T01830087  RH  053%=      5-min Rain = 0
KSE2 140526Z 21004KT 18/09 A3005 RMK A01 T01830087  RH  054%=      5-min Rain = 0
KSE2 140527Z 21003KT 18/09 A3005 RMK A01 T01830087  RH  054%=      5-min Rain = 0
KSE2 140528Z 20004KT 18/09 A3005 RMK A01 T01830087  RH  054%=      5-min Rain = 0
KSE2 140529Z 20004KT 18/09 A3005 RMK A01 T01830087  RH  054%=      5-min Rain = 0
KSE2 140530Z 19004KT 18/09 A3004 RMK A01 T01830087  RH  054%=      5-min Rain = 0
KSE2 140531Z 19004KT 18/09 A3004 RMK A01 T01830088  RH  054%=      5-min Rain = 0
KSE2 140532Z 19004KT 18/09 A3004 RMK A01 T01830088  RH  054%=      5-min Rain = 0
KSE2 140533Z 18004KT 18/09 A3004 RMK A01 T01830088  RH  054%=      5-min Rain = 0
KSE2 140534Z 18004KT 18/09 A3004 RMK A01 T01820089  RH  054%=      5-min Rain = 0
KSE2 140535Z 17004KT 18/09 A3004 RMK A01 T01820089  RH  054%=      5-min Rain = 0
KSE2 140536Z 17004KT 18/09 A3004 RMK A01 T01810088  RH  055%=      5-min Rain = 0
KSE2 140537Z 17004KT 18/09 A3004 RMK A01 T01810089  RH  055%=      5-min Rain = 0
KSE2 140538Z 17004KT 18/09 A3004 RMK A01 T01810089  RH  055%=      5-min Rain = 0
KSE2 140539Z 18004KT 18/09 A3004 RMK A01 T01800090  RH  056%=      5-min Rain = 0
KSE2 140540Z 18004KT 18/09 A3004 RMK A01 T01800090  RH  056%=      5-min Rain = 0
KSE2 140541Z 19004KT 18/09 A3004 RMK A01 T01790090  RH  056%=      5-min Rain = 0
KSE2 140542Z 19004KT 18/09 A3004 RMK A01 T01790091  RH  056%=      5-min Rain = 0
KSE2 140543Z 19004KT 18/09 A3004 RMK A01 T01790091  RH  056%=      5-min Rain = 0
KSE2 140544Z 19003KT 18/09 A3004 RMK A01 T01800091  RH  056%=      5-min Rain = 0
KSE2 140545Z 19004KT 18/09 A3004 RMK A01 T01790091  RH  056%=      5-min Rain = 0
KSE2 140546Z 19004KT 18/09 A3004 RMK A01 T01790092  RH  056%=      5-min Rain = 0
KSE2 140547Z 19004KT 18/09 A3004 RMK A01 T01790092  RH  057%=      5-min Rain = 0
KSE2 140548Z 18004KT 18/09 A3004 RMK A01 T01790092  RH  057%=      5-min Rain = 0
KSE2 140549Z 18004KT 18/09 A3004 RMK A01 T01780093  RH  057%=      5-min Rain = 0
KSE2 140550Z 17004KT 18/09 A3004 RMK A01 T01780092  RH  057%=      5-min Rain = 0
KSE2 140551Z 17004KT 18/09 A3003 RMK A01 T01780092  RH  057%=      5-min Rain = 0
KSE2 140552Z 17003KT 18/09 A3003 RMK A01 T01780092  RH  057%=      5-min Rain = 0
KSE2 140553Z 17004KT 18/09 A3003 RMK A01 T01780092  RH  057%=      5-min Rain = 0
KSE2 140554Z 17003KT 18/09 A3003 RMK A01 T01780093  RH  057%=      5-min Rain = 0
KSE2 140555Z 17003KT 18/09 A3003 RMK A01 T01780093  RH  057%=      5-min Rain = 0
KSE2 140556Z 17003KT 18/09 A3003 RMK A01 T01770092  RH  057%=      5-min Rain = 0
KSE2 140557Z 18004KT 18/09 A3003 RMK A01 T01780092  RH  057%=      5-min Rain = 0
KSE2 140558Z 19003KT 18/09 A3003 RMK A01 T01780092  RH  057%=      5-min Rain = 0
KSE2 140559Z 19003KT 18/09 A3003 RMK A01 T01780092  RH  057%=      5-min Rain = 0
KSE2 140600Z 21003KT 18/09 A3004 RMK A01 T01780092  RH  057%=      5-min Rain = 0
KSE2 140601Z 20003KT 18/09 A3004 RMK A01 T01780092  RH  057%=      5-min Rain = 0
KSE2 140602Z 21003KT 18/09 A3003 RMK A01 T01780092  RH  057%=      5-min Rain = 0
KSE2 140603Z 21003KT 18/09 A3003 RMK A01 T01780092  RH  057%=      5-min Rain = 0
KSE2 140604Z 20003KT 18/09 A3003 RMK A01 T01780092  RH  057%=      5-min Rain = 0
KSE2 140605Z 20003KT 18/09 A3003 RMK A01 T01770092  RH  057%=      5-min Rain = 0
KSE2 140606Z 20004KT 18/09 A3003 RMK A01 T01780092  RH  057%=      5-min Rain = 0
KSE2 140607Z 19004KT 18/09 A3003 RMK A01 T01780092  RH  057%=      5-min Rain = 0
KSE2 140608Z 19004KT 18/09 A3003 RMK A01 T01780093  RH  057%=      5-min Rain = 0
KSE2 140609Z 19004KT 18/09 A3003 RMK A01 T01780093  RH  057%=      5-min Rain = 0
KSE2 140610Z 19004KT 18/09 A3003 RMK A01 T01780093  RH  057%=      5-min Rain = 0
KSE2 140611Z 19004KT 18/09 A3003 RMK A01 T01790093  RH  057%=      5-min Rain = 0
KSE2 140612Z 18004KT 18/09 A3003 RMK A01 T01780093  RH  057%=      5-min Rain = 0
KSE2 140613Z 18004KT 18/09 A3003 RMK A01 T01780093  RH  057%=      5-min Rain = 0
KSE2 140614Z 19004KT 18/09 A3003 RMK A01 T01790094  RH  058%=      5-min Rain = 0
KSE2 140615Z 20004KT 18/09 A3003 RMK A01 T01790094  RH  058%=      5-min Rain = 0
KSE2 140616Z 20004KT 18/09 A3003 RMK A01 T01780094  RH  058%=      5-min Rain = 0
KSE2 140617Z 20004KT 18/09 A3003 RMK A01 T01790094  RH  058%=      5-min Rain = 0
KSE2 140618Z 19004KT 18/09 A3003 RMK A01 T01790094  RH  058%=      5-min Rain = 0
KSE2 140619Z 20005KT 18/09 A3003 RMK A01 T01790094  RH  058%=      5-min Rain = 0
KSE2 140620Z 19005KT 18/10 A3003 RMK A01 T01790095  RH  058%=      5-min Rain = 0
KSE2 140621Z 20004KT 18/10 A3003 RMK A01 T01800095  RH  058%=      5-min Rain = 0
KSE2 140622Z 19004KT 18/10 A3003 RMK A01 T01800095  RH  057%=      5-min Rain = 0
KSE2 140623Z 18004KT 18/10 A3003 RMK A01 T01800095  RH  057%=      5-min Rain = 0
KSE2 140624Z 18003KT 18/10 A3003 RMK A01 T01800095  RH  058%=      5-min Rain = 0
KSE2 140625Z 17004KT 18/10 A3003 RMK A01 T01800096  RH  058%=      5-min Rain = 0
KSE2 140626Z 17004KT 18/10 A3003 RMK A01 T01800096  RH  058%=      5-min Rain = 0
KSE2 140627Z 18004KT 18/10 A3003 RMK A01 T01810096  RH  058%=      5-min Rain = 0
KSE2 140628Z 18005KT 18/10 A3003 RMK A01 T01810096  RH  058%=      5-min Rain = 0
KSE2 140629Z 18004KT 18/10 A3003 RMK A01 T01810096  RH  058%=      5-min Rain = 0
KSE2 140630Z 18005KT 18/10 A3003 RMK A01 T01820097  RH  057%=      5-min Rain = 0
KSE2 140631Z 18005KT 18/10 A3003 RMK A01 T01820096  RH  057%=      5-min Rain = 0
KSE2 140632Z 17005KT 18/10 A3003 RMK A01 T01820097  RH  057%=      5-min Rain = 0
KSE2 140633Z 17005KT 18/10 A3003 RMK A01 T01820096  RH  057%=      5-min Rain = 0
KSE2 140634Z 16005KT 18/10 A3003 RMK A01 T01830097  RH  057%=      5-min Rain = 0
KSE2 140635Z 17005KT 18/10 A3003 RMK A01 T01830097  RH  057%=      5-min Rain = 0
KSE2 140636Z 17004KT 18/10 A3003 RMK A01 T01830097  RH  057%=      5-min Rain = 0
KSE2 140637Z 18004KT 18/10 A3003 RMK A01 T01840097  RH  057%=      5-min Rain = 0
KSE2 140638Z 18003KT 18/10 A3003 RMK A01 T01830097  RH  057%=      5-min Rain = 0
KSE2 140639Z 18004KT 18/10 A3003 RMK A01 T01840098  RH  057%=      5-min Rain = 0
KSE2 140640Z 19004KT 18/10 A3003 RMK A01 T01840098  RH  057%=      5-min Rain = 0
KSE2 140641Z 18005KT 18/10 A3003 RMK A01 T01840098  RH  057%=      5-min Rain = 0
KSE2 140642Z 18004KT 18/10 A3003 RMK A01 T01840099  RH  057%=      5-min Rain = 0
KSE2 140643Z 18006KT 18/10 A3003 RMK A01 T01840098  RH  057%=      5-min Rain = 0
KSE2 140644Z 17006KT 19/10 A3003 RMK A01 T01850099  RH  057%=      5-min Rain = 0
KSE2 140645Z 17005KT 19/10 A3003 RMK A01 T01850098  RH  057%=      5-min Rain = 0
KSE2 140646Z 17005KT 19/10 A3003 RMK A01 T01850098  RH  057%=      5-min Rain = 0
KSE2 140647Z 17005KT 19/10 A3003 RMK A01 T01850098  RH  057%=      5-min Rain = 0
KSE2 140648Z 18004KT 19/10 A3003 RMK A01 T01850098  RH  057%=      5-min Rain = 0
KSE2 140649Z 17005KT 19/10 A3003 RMK A01 T01850098  RH  057%=      5-min Rain = 0
KSE2 140650Z 17004KT 19/10 A3003 RMK A01 T01850098  RH  057%=      5-min Rain = 0
KSE2 140651Z 17006KT 19/10 A3003 RMK A01 T01850098  RH  057%=      5-min Rain = 0
KSE2 140652Z 16005KT 19/10 A3003 RMK A01 T01850098  RH  057%=      5-min Rain = 0
KSE2 140653Z 16004KT 19/10 A3003 RMK A01 T01850098  RH  057%=      5-min Rain = 0
KSE2 140654Z 17004KT 19/10 A3003 RMK A01 T01850098  RH  057%=      5-min Rain = 0
KSE2 140655Z 17004KT 19/10 A3003 RMK A01 T01850099  RH  057%=      5-min Rain = 0
KSE2 140656Z 17004KT 19/10 A3004 RMK A01 T01850099  RH  057%=      5-min Rain = 0
KSE2 140657Z 17005KT 19/10 A3003 RMK A01 T01850099  RH  057%=      5-min Rain = 0
KSE2 140658Z 18005KT 19/10 A3003 RMK A01 T01850099  RH  057%=      5-min Rain = 0
KSE2 140659Z 17005KT 19/10 A3003 RMK A01 T01850099  RH  057%=      5-min Rain = 0
KSE2 140700Z 17005KT 19/10 A3003 RMK A01 T01850099  RH  057%=      5-min Rain = 0
KSE2 140701Z 17005KT 19/10 A3003 RMK A01 T01850099  RH  057%=      5-min Rain = 0
KSE2 140702Z 17005KT 19/10 A3003 RMK A01 T01850099  RH  057%=      5-min Rain = 0
KSE2 140703Z 17004KT 19/10 A3003 RMK A01 T01850099  RH  057%=      5-min Rain = 0
KSE2 140704Z 17004KT 19/10 A3003 RMK A01 T01850099  RH  057%=      5-min Rain = 0
KSE2 140705Z 17005KT 19/10 A3004 RMK A01 T01850098  RH  057%=      5-min Rain = 0
KSE2 140706Z 18005KT 19/10 A3004 RMK A01 T01850098  RH  057%=      5-min Rain = 0
KSE2 140707Z 18006KT 19/10 A3004 RMK A01 T01850098  RH  057%=      5-min Rain = 0
KSE2 140708Z 18006KT 19/10 A3004 RMK A01 T01850099  RH  057%=      5-min Rain = 0
KSE2 140709Z 18005KT 19/10 A3004 RMK A01 T01860099  RH  057%=      5-min Rain = 0
KSE2 140710Z 18006KT 19/10 A3004 RMK A01 T01860099  RH  057%=      5-min Rain = 0
KSE2 140711Z 18005KT 19/10 A3004 RMK A01 T01860099  RH  057%=      5-min Rain = 0
KSE2 140712Z 18006KT 19/10 A3004 RMK A01 T01860100  RH  057%=      5-min Rain = 0
KSE2 140713Z 18005KT 19/10 A3004 RMK A01 T01860099  RH  057%=      5-min Rain = 0
KSE2 140714Z 18004KT 19/10 A3004 RMK A01 T01860100  RH  057%=      5-min Rain = 0
KSE2 140715Z 18006KT 19/10 A3004 RMK A01 T01860100  RH  057%=      5-min Rain = 0
KSE2 140716Z 18004KT 19/10 A3004 RMK A01 T01860100  RH  057%=      5-min Rain = 0
KSE2 140717Z 19005KT 19/10 A3004 RMK A01 T01860100  RH  057%=      5-min Rain = 0
KSE2 140718Z 18005KT 19/10 A3004 RMK A01 T01860101  RH  058%=      5-min Rain = 0
KSE2 140719Z 19004KT 19/10 A3004 RMK A01 T01860101  RH  058%=      5-min Rain = 0
KSE2 140720Z 20004KT 19/10 A3004 RMK A01 T01860101  RH  058%=      5-min Rain = 0
KSE2 140721Z 19005KT 19/10 A3004 RMK A01 T01860101  RH  058%=      5-min Rain = 0
KSE2 140722Z 19006KT 19/10 A3004 RMK A01 T01860102  RH  058%=      5-min Rain = 0
KSE2 140723Z 18005KT 19/10 A3004 RMK A01 T01860102  RH  058%=      5-min Rain = 0
KSE2 140724Z 18005KT 19/10 A3004 RMK A01 T01860103  RH  058%=      5-min Rain = 0
KSE2 140725Z 18004KT 19/10 A3004 RMK A01 T01860103  RH  058%=      5-min Rain = 0
KSE2 140726Z 18005KT 19/10 A3004 RMK A01 T01860103  RH  059%=      5-min Rain = 0
KSE2 140727Z 18005KT 19/10 A3004 RMK A01 T01860104  RH  059%=      5-min Rain = 0
KSE2 140728Z 19004KT 19/10 A3004 RMK A01 T01860104  RH  059%=      5-min Rain = 0
KSE2 140729Z 18004KT 19/10 A3004 RMK A01 T01860104  RH  059%=      5-min Rain = 0
KSE2 140730Z 18004KT 19/10 A3004 RMK A01 T01860104  RH  059%=      5-min Rain = 0
KSE2 140731Z 19004KT 19/11 A3004 RMK A01 T01860105  RH  059%=      5-min Rain = 0
KSE2 140732Z 18005KT 19/11 A3004 RMK A01 T01860105  RH  059%=      5-min Rain = 0
KSE2 140733Z 19005KT 19/11 A3004 RMK A01 T01860106  RH  059%=      5-min Rain = 0
KSE2 140734Z 19005KT 19/11 A3004 RMK A01 T01860106  RH  059%=      5-min Rain = 0
KSE2 140735Z 19005KT 19/11 A3004 RMK A01 T01860106  RH  060%=      5-min Rain = 0
KSE2 140736Z 19005KT 19/11 A3004 RMK A01 T01860106  RH  060%=      5-min Rain = 0
KSE2 140737Z 19004KT 19/11 A3004 RMK A01 T01860106  RH  060%=      5-min Rain = 0
KSE2 140738Z 19005KT 19/11 A3004 RMK A01 T01860107  RH  060%=      5-min Rain = 0
KSE2 140739Z 20005KT 19/11 A3004 RMK A01 T01860107  RH  060%=      5-min Rain = 0
KSE2 140740Z 19005KT 19/11 A3004 RMK A01 T01860107  RH  060%=      5-min Rain = 0
KSE2 140741Z 19004KT 19/11 A3004 RMK A01 T01860108  RH  060%=      5-min Rain = 0
KSE2 140742Z 20004KT 19/11 A3004 RMK A01 T01860108  RH  060%=      5-min Rain = 0
KSE2 140743Z 20004KT 19/11 A3004 RMK A01 T01860108  RH  060%=      5-min Rain = 0
KSE2 140744Z 20004KT 19/11 A3004 RMK A01 T01860108  RH  060%=      5-min Rain = 0
KSE2 140745Z 19004KT 19/11 A3004 RMK A01 T01860108  RH  060%=      5-min Rain = 0
KSE2 140746Z 20004KT 19/11 A3004 RMK A01 T01860109  RH  061%=      5-min Rain = 0
KSE2 140747Z 20004KT 19/11 A3004 RMK A01 T01870109  RH  061%=      5-min Rain = 0
KSE2 140748Z 20004KT 19/11 A3004 RMK A01 T01870109  RH  061%=      5-min Rain = 0
KSE2 140749Z 19005KT 19/11 A3004 RMK A01 T01870110  RH  061%=      5-min Rain = 0
KSE2 140750Z 19004KT 19/11 A3004 RMK A01 T01870110  RH  061%=      5-min Rain = 0
KSE2 140751Z 19004KT 19/11 A3004 RMK A01 T01870110  RH  061%=      5-min Rain = 0
KSE2 140752Z 19004KT 19/11 A3004 RMK A01 T01870110  RH  061%=      5-min Rain = 0
KSE2 140753Z 20004KT 19/11 A3004 RMK A01 T01870110  RH  061%=      5-min Rain = 0
KSE2 140754Z 19004KT 19/11 A3004 RMK A01 T01870111  RH  061%=      5-min Rain = 0
KSE2 140755Z 19005KT 19/11 A3004 RMK A01 T01870111  RH  061%=      5-min Rain = 0
KSE2 140756Z 19005KT 19/11 A3004 RMK A01 T01870112  RH  061%=      5-min Rain = 0
KSE2 140757Z 19004KT 19/11 A3004 RMK A01 T01870112  RH  062%=      5-min Rain = 0
KSE2 140758Z 18005KT 19/11 A3004 RMK A01 T01870112  RH  062%=      5-min Rain = 0
KSE2 140759Z 18004KT 19/11 A3004 RMK A01 T01870112  RH  062%=      5-min Rain = 0
KSE2 140800Z 18004KT 19/11 A3004 RMK A01 T01870112  RH  062%=      5-min Rain = 0
KSE2 140801Z 16004KT 19/11 A3004 RMK A01 T01870112  RH  062%=      5-min Rain = 0
KSE2 140802Z 17004KT 19/11 A3004 RMK A01 T01870113  RH  062%=      5-min Rain = 0
KSE2 140803Z 17004KT 19/11 A3004 RMK A01 T01870113  RH  062%=      5-min Rain = 0
KSE2 140804Z 16004KT 19/11 A3004 RMK A01 T01870113  RH  062%=      5-min Rain = 0
KSE2 140805Z 17004KT 19/11 A3004 RMK A01 T01870113  RH  062%=      5-min Rain = 0
KSE2 140806Z 17004KT 19/11 A3004 RMK A01 T01860113  RH  062%=      5-min Rain = 0
KSE2 140807Z 18005KT 19/11 A3004 RMK A01 T01860113  RH  062%=      5-min Rain = 0
KSE2 140808Z 17005KT 19/11 A3004 RMK A01 T01860114  RH  063%=      5-min Rain = 0
KSE2 140809Z 16005KT 19/11 A3003 RMK A01 T01860114  RH  063%=      5-min Rain = 0
KSE2 140810Z 17005KT 19/11 A3003 RMK A01 T01870114  RH  063%=      5-min Rain = 0
KSE2 140811Z 16005KT 19/12 A3003 RMK A01 T01870115  RH  063%=      5-min Rain = 0
KSE2 140812Z 17004KT 19/12 A3003 RMK A01 T01870115  RH  063%=      5-min Rain = 0
KSE2 140813Z 17004KT 19/12 A3003 RMK A01 T01870115  RH  063%=      5-min Rain = 0
KSE2 140814Z 17004KT 19/12 A3003 RMK A01 T01870115  RH  063%=      5-min Rain = 0
KSE2 140815Z 18005KT 19/12 A3003 RMK A01 T01870115  RH  063%=      5-min Rain = 0
KSE2 140816Z 17005KT 19/12 A3003 RMK A01 T01870116  RH  063%=      5-min Rain = 0
KSE2 140817Z 18005KT 19/12 A3003 RMK A01 T01870116  RH  063%=      5-min Rain = 0
KSE2 140818Z 17004KT 19/12 A3003 RMK A01 T01870116  RH  063%=      5-min Rain = 0
KSE2 140819Z 18005KT 19/12 A3003 RMK A01 T01870116  RH  063%=      5-min Rain = 0
KSE2 140820Z 18006KT 19/12 A3003 RMK A01 T01870116  RH  064%=      5-min Rain = 0
KSE2 140821Z 17005KT 19/12 A3003 RMK A01 T01870117  RH  064%=      5-min Rain = 0
KSE2 140822Z 16006KT 19/12 A3003 RMK A01 T01870117  RH  064%=      5-min Rain = 0
KSE2 140823Z 17005KT 19/12 A3003 RMK A01 T01870117  RH  064%=      5-min Rain = 0
KSE2 140824Z 17006KT 19/12 A3003 RMK A01 T01870117  RH  064%=      5-min Rain = 0
KSE2 140825Z 18005KT 19/12 A3003 RMK A01 T01870118  RH  064%=      5-min Rain = 0
KSE2 140826Z 17005KT 19/12 A3003 RMK A01 T01870118  RH  064%=      5-min Rain = 0
KSE2 140827Z 18006KT 19/12 A3003 RMK A01 T01870118  RH  064%=      5-min Rain = 0
KSE2 140828Z 17004KT 19/12 A3003 RMK A01 T01870118  RH  064%=      5-min Rain = 0
KSE2 140829Z 18004KT 19/12 A3003 RMK A01 T01870119  RH  065%=      5-min Rain = 0
KSE2 140830Z 17006KT 19/12 A3003 RMK A01 T01870119  RH  065%=      5-min Rain = 0
KSE2 140831Z 17005KT 19/12 A3003 RMK A01 T01870119  RH  065%=      5-min Rain = 0
KSE2 140832Z 17005KT 19/12 A3003 RMK A01 T01870120  RH  065%=      5-min Rain = 0
KSE2 140833Z 17006KT 19/12 A3003 RMK A01 T01870120  RH  065%=      5-min Rain = 0
KSE2 140834Z 18005KT 19/12 A3003 RMK A01 T01870120  RH  065%=      5-min Rain = 0
KSE2 140835Z 17006KT 19/12 A3003 RMK A01 T01870120  RH  065%=      5-min Rain = 0
KSE2 140836Z 17006KT 19/12 A3003 RMK A01 T01870121  RH  065%=      5-min Rain = 0
KSE2 140837Z 16005KT 19/12 A3003 RMK A01 T01870121  RH  065%=      5-min Rain = 0
KSE2 140838Z 17005KT 19/12 A3002 RMK A01 T01870121  RH  065%=      5-min Rain = 0
KSE2 140839Z 18006KT 19/12 A3002 RMK A01 T01870121  RH  066%=      5-min Rain = 0
KSE2 140840Z 17006KT 19/12 A3002 RMK A01 T01870122  RH  066%=      5-min Rain = 0
KSE2 140841Z 17005KT 19/12 A3002 RMK A01 T01870122  RH  066%=      5-min Rain = 0
KSE2 140842Z 17006KT 19/12 A3002 RMK A01 T01870122  RH  066%=      5-min Rain = 0
KSE2 140843Z 17004KT 19/12 A3002 RMK A01 T01870122  RH  066%=      5-min Rain = 0
KSE2 140844Z 16005KT 19/12 A3002 RMK A01 T01870122  RH  066%=      5-min Rain = 0
KSE2 140845Z 16004KT 19/12 A3002 RMK A01 T01870122  RH  066%=      5-min Rain = 0
KSE2 140846Z 16004KT 19/12 A3002 RMK A01 T01870123  RH  066%=      5-min Rain = 0
KSE2 140847Z 16005KT 19/12 A3002 RMK A01 T01870122  RH  066%=      5-min Rain = 0
KSE2 140848Z 16005KT 19/12 A3002 RMK A01 T01860122  RH  066%=      5-min Rain = 0
KSE2 140849Z 16004KT 19/12 A3002 RMK A01 T01860122  RH  066%=      5-min Rain = 0
KSE2 140850Z 16005KT 19/12 A3002 RMK A01 T01860122  RH  066%=      5-min Rain = 0
KSE2 140851Z 16005KT 19/12 A3002 RMK A01 T01850122  RH  066%=      5-min Rain = 0
KSE2 140852Z 16004KT 19/12 A3002 RMK A01 T01850121  RH  067%=      5-min Rain = 0
KSE2 140853Z 17004KT 19/12 A3002 RMK A01 T01850122  RH  067%=      5-min Rain = 0
KSE2 140854Z 18005KT 18/12 A3002 RMK A01 T01840122  RH  067%=      5-min Rain = 0
KSE2 140855Z 18005KT 18/12 A3002 RMK A01 T01840122  RH  067%=      5-min Rain = 0
KSE2 140856Z 18005KT 18/12 A3002 RMK A01 T01840122  RH  067%=      5-min Rain = 0
KSE2 140857Z 18005KT 18/12 A3002 RMK A01 T01840123  RH  067%=      5-min Rain = 0
KSE2 140858Z 18006KT 19/12 A3002 RMK A01 T01850123  RH  067%=      5-min Rain = 0
KSE2 140859Z 18006KT 18/12 A3002 RMK A01 T01840123  RH  067%=      5-min Rain = 0
KSE2 140900Z 18005KT 18/12 A3002 RMK A01 T01840123  RH  067%=      5-min Rain = 0
KSE2 140901Z 18006KT 19/12 A3002 RMK A01 T01850124  RH  067%=      5-min Rain = 0
KSE2 140902Z 18004KT 19/12 A3002 RMK A01 T01850124  RH  067%=      5-min Rain = 0
KSE2 140903Z 18005KT 19/12 A3002 RMK A01 T01850124  RH  067%=      5-min Rain = 0
KSE2 140904Z 19007KT 19/12 A3002 RMK A01 T01850124  RH  067%=      5-min Rain = 0
KSE2 140905Z 18006KT 19/12 A3002 RMK A01 T01860124  RH  067%=      5-min Rain = 0
KSE2 140906Z 19005KT 19/12 A3002 RMK A01 T01860124  RH  067%=      5-min Rain = 0
KSE2 140907Z 18004KT 19/12 A3002 RMK A01 T01860124  RH  067%=      5-min Rain = 0
KSE2 140908Z 18005KT 19/12 A3002 RMK A01 T01860124  RH  067%=      5-min Rain = 0
KSE2 140909Z 18003KT 19/12 A3002 RMK A01 T01860124  RH  067%=      5-min Rain = 0
KSE2 140910Z 18005KT 19/12 A3002 RMK A01 T01860124  RH  067%=      5-min Rain = 0
KSE2 140911Z 18005KT 19/13 A3002 RMK A01 T01860125  RH  067%=      5-min Rain = 0
KSE2 140912Z 18004KT 19/12 A3002 RMK A01 T01860124  RH  067%=      5-min Rain = 0
KSE2 140913Z 18003KT 19/13 A3002 RMK A01 T01860125  RH  067%=      5-min Rain = 0
KSE2 140914Z 18004KT 19/13 A3002 RMK A01 T01860125  RH  068%=      5-min Rain = 0
KSE2 140915Z 18004KT 19/13 A3002 RMK A01 T01860125  RH  068%=      5-min Rain = 0
KSE2 140916Z 18004KT 19/13 A3002 RMK A01 T01860125  RH  068%=      5-min Rain = 0
KSE2 140917Z 18004KT 19/13 A3002 RMK A01 T01860125  RH  068%=      5-min Rain = 0
KSE2 140918Z 19003KT 19/13 A3001 RMK A01 T01860125  RH  068%=      5-min Rain = 0
KSE2 140919Z 18003KT 19/13 A3001 RMK A01 T01860125  RH  068%=      5-min Rain = 0
KSE2 140920Z 19003KT 19/13 A3001 RMK A01 T01850125  RH  068%=      5-min Rain = 0
KSE2 140921Z 18003KT 19/13 A3001 RMK A01 T01850125  RH  068%=      5-min Rain = 0
KSE2 140922Z 18003KT 19/13 A3001 RMK A01 T01850125  RH  068%=      5-min Rain = 0
KSE2 140923Z 19003KT 19/13 A3001 RMK A01 T01850125  RH  068%=      5-min Rain = 0
KSE2 140924Z 18003KT 19/13 A3001 RMK A01 T01850125  RH  068%=      5-min Rain = 0
KSE2 140925Z 18004KT 19/13 A3001 RMK A01 T01850126  RH  068%=      5-min Rain = 0
KSE2 140926Z 18004KT 19/13 A3001 RMK A01 T01850126  RH  068%=      5-min Rain = 0
KSE2 140927Z 17004KT 19/13 A3001 RMK A01 T01850125  RH  068%=      5-min Rain = 0
KSE2 140928Z 18004KT 19/13 A3001 RMK A01 T01850126  RH  068%=      5-min Rain = 0
KSE2 140929Z 18004KT 19/13 A3001 RMK A01 T01850126  RH  068%=      5-min Rain = 0
KSE2 140930Z 18004KT 19/13 A3001 RMK A01 T01850126  RH  068%=      5-min Rain = 0
KSE2 140931Z 18003KT 19/13 A3001 RMK A01 T01850126  RH  068%=      5-min Rain = 0
KSE2 140932Z 18004KT 19/13 A3001 RMK A01 T01850126  RH  068%=      5-min Rain = 0
KSE2 140933Z 18003KT 19/13 A3001 RMK A01 T01850126  RH  068%=      5-min Rain = 0
KSE2 140934Z 18003KT 19/13 A3001 RMK A01 T01850126  RH  068%=      5-min Rain = 0
KSE2 140935Z 19003KT 19/13 A3001 RMK A01 T01850126  RH  068%=      5-min Rain = 0
KSE2 140936Z 18003KT 19/13 A3001 RMK A01 T01850126  RH  069%=      5-min Rain = 0
KSE2 140937Z 19004KT 19/13 A3001 RMK A01 T01850126  RH  069%=      5-min Rain = 0
KSE2 140938Z 19004KT 19/13 A3001 RMK A01 T01850126  RH  069%=      5-min Rain = 0
KSE2 140939Z 18004KT 19/13 A3001 RMK A01 T01850127  RH  069%=      5-min Rain = 0
KSE2 140940Z 19004KT 19/13 A3001 RMK A01 T01850127  RH  069%=      5-min Rain = 0
KSE2 140941Z 19004KT 19/13 A3001 RMK A01 T01850127  RH  069%=      5-min Rain = 0
KSE2 140942Z 19004KT 19/13 A3001 RMK A01 T01850127  RH  069%=      5-min Rain = 0
KSE2 140943Z 19003KT 19/13 A3001 RMK A01 T01850127  RH  069%=      5-min Rain = 0
KSE2 140944Z 18004KT 19/13 A3001 RMK A01 T01850127  RH  069%=      5-min Rain = 0
KSE2 140945Z 18004KT 18/13 A3001 RMK A01 T01840127  RH  069%=      5-min Rain = 0
KSE2 140946Z 18004KT 19/13 A3001 RMK A01 T01850127  RH  069%=      5-min Rain = 0
KSE2 140947Z 18003KT 18/13 A3001 RMK A01 T01840127  RH  069%=      5-min Rain = 0
KSE2 140948Z 18003KT 18/13 A3001 RMK A01 T01840127  RH  069%=      5-min Rain = 0
KSE2 140949Z 18003KT 18/13 A3002 RMK A01 T01840127  RH  069%=      5-min Rain = 0
KSE2 140950Z 17003KT 18/13 A3002 RMK A01 T01840127  RH  069%=      5-min Rain = 0
KSE2 140951Z 17003KT 18/13 A3002 RMK A01 T01840127  RH  069%=      5-min Rain = 0
KSE2 140952Z 17002KT 18/13 A3002 RMK A01 T01840127  RH  069%=      5-min Rain = 0
KSE2 140953Z 17003KT 18/13 A3002 RMK A01 T01830127  RH  070%=      5-min Rain = 0
KSE2 140954Z 17003KT 18/13 A3002 RMK A01 T01830127  RH  070%=      5-min Rain = 0
KSE2 140955Z 16003KT 18/13 A3002 RMK A01 T01830127  RH  070%=      5-min Rain = 0
KSE2 140956Z 16003KT 18/13 A3002 RMK A01 T01830127  RH  070%=      5-min Rain = 0
KSE2 140957Z 16003KT 18/13 A3001 RMK A01 T01830127  RH  070%=      5-min Rain = 0
KSE2 140958Z 16003KT 18/13 A3001 RMK A01 T01830127  RH  070%=      5-min Rain = 0
KSE2 140959Z 16003KT 18/13 A3001 RMK A01 T01820126  RH  070%=      5-min Rain = 0
KSE2 141000Z 16003KT 18/13 A3001 RMK A01 T01820126  RH  070%=      5-min Rain = 0
KSE2 141001Z 15003KT 18/13 A3001 RMK A01 T01820127  RH  070%=      5-min Rain = 0
KSE2 141002Z 16003KT 18/13 A3001 RMK A01 T01810126  RH  070%=      5-min Rain = 0
KSE2 141003Z 17003KT 18/13 A3001 RMK A01 T01810127  RH  070%=      5-min Rain = 0
KSE2 141004Z 17003KT 18/13 A3001 RMK A01 T01810126  RH  071%=      5-min Rain = 0
KSE2 141005Z 17003KT 18/13 A3001 RMK A01 T01810127  RH  071%=      5-min Rain = 0
KSE2 141006Z 16003KT 18/13 A3001 RMK A01 T01800126  RH  071%=      5-min Rain = 0
KSE2 141007Z 16003KT 18/13 A3001 RMK A01 T01800127  RH  071%=      5-min Rain = 0
KSE2 141008Z 16003KT 18/13 A3001 RMK A01 T01800127  RH  071%=      5-min Rain = 0
KSE2 141009Z 16003KT 18/13 A3001 RMK A01 T01800127  RH  071%=      5-min Rain = 0
KSE2 141010Z 16003KT 18/13 A3001 RMK A01 T01800127  RH  071%=      5-min Rain = 0
KSE2 141011Z 15003KT 18/13 A3002 RMK A01 T01800126  RH  071%=      5-min Rain = 0
KSE2 141012Z 15002KT 18/13 A3002 RMK A01 T01790126  RH  071%=      5-min Rain = 0
KSE2 141013Z 16002KT 18/13 A3002 RMK A01 T01790126  RH  071%=      5-min Rain = 0
KSE2 141014Z 16002KT 18/13 A3002 RMK A01 T01790126  RH  071%=      5-min Rain = 0
KSE2 141015Z 17002KT 18/13 A3002 RMK A01 T01790127  RH  071%=      5-min Rain = 0
KSE2 141016Z 18002KT 18/13 A3002 RMK A01 T01790127  RH  072%=      5-min Rain = 0
KSE2 141017Z 18001KT 18/13 A3002 RMK A01 T01790127  RH  072%=      5-min Rain = 0
KSE2 141018Z 19001KT 18/13 A3002 RMK A01 T01790127  RH  072%=      5-min Rain = 0
KSE2 141019Z 21001KT 18/13 A3002 RMK A01 T01790127  RH  072%=      5-min Rain = 0
KSE2 141020Z 21001KT 18/13 A3002 RMK A01 T01790127  RH  072%=      5-min Rain = 0
KSE2 141021Z 20001KT 18/13 A3002 RMK A01 T01780127  RH  072%=      5-min Rain = 0
KSE2 141022Z 19001KT 18/13 A3002 RMK A01 T01790127  RH  072%=      5-min Rain = 0
KSE2 141023Z 19002KT 18/13 A3002 RMK A01 T01780127  RH  072%=      5-min Rain = 0
KSE2 141024Z 19002KT 18/13 A3002 RMK A01 T01780126  RH  072%=      5-min Rain = 0
KSE2 141025Z 19002KT 18/13 A3002 RMK A01 T01780127  RH  072%=      5-min Rain = 0
KSE2 141026Z 18002KT 18/13 A3002 RMK A01 T01780127  RH  072%=      5-min Rain = 0
KSE2 141027Z 18003KT 18/13 A3002 RMK A01 T01780127  RH  072%=      5-min Rain = 0
KSE2 141028Z 18003KT 18/13 A3003 RMK A01 T01780127  RH  072%=      5-min Rain = 0
KSE2 141029Z 19003KT 18/13 A3003 RMK A01 T01780127  RH  072%=      5-min Rain = 0
KSE2 141030Z 19003KT 18/13 A3003 RMK A01 T01780127  RH  072%=      5-min Rain = 0
KSE2 141031Z 19003KT 18/13 A3003 RMK A01 T01780127  RH  072%=      5-min Rain = 0
KSE2 141032Z 19003KT 18/13 A3002 RMK A01 T01780127  RH  072%=      5-min Rain = 0
KSE2 141033Z 18003KT 18/13 A3002 RMK A01 T01780128  RH  072%=      5-min Rain = 0
KSE2 141034Z 19003KT 18/13 A3002 RMK A01 T01780127  RH  072%=      5-min Rain = 0
KSE2 141035Z 18003KT 18/13 A3002 RMK A01 T01780128  RH  072%=      5-min Rain = 0
KSE2 141036Z 18003KT 18/13 A3002 RMK A01 T01780128  RH  072%=      5-min Rain = 0
KSE2 141037Z 19003KT 18/13 A3002 RMK A01 T01780127  RH  072%=      5-min Rain = 0
KSE2 141038Z 19003KT 18/13 A3002 RMK A01 T01780128  RH  072%=      5-min Rain = 0
KSE2 141039Z 20003KT 18/13 A3002 RMK A01 T01780127  RH  072%=      5-min Rain = 0
KSE2 141040Z 20002KT 18/13 A3002 RMK A01 T01790128  RH  072%=      5-min Rain = 0
KSE2 141041Z 21003KT 18/13 A3002 RMK A01 T01790128  RH  072%=      5-min Rain = 0
KSE2 141042Z 21003KT 18/13 A3002 RMK A01 T01790128  RH  072%=      5-min Rain = 0
KSE2 141043Z 21003KT 18/13 A3002 RMK A01 T01800128  RH  072%=      5-min Rain = 0
KSE2 141044Z 21003KT 18/13 A3002 RMK A01 T01800128  RH  072%=      5-min Rain = 0
KSE2 141045Z 20003KT 18/13 A3002 RMK A01 T01800129  RH  072%=      5-min Rain = 0
KSE2 141046Z 21003KT 18/13 A3002 RMK A01 T01810129  RH  072%=      5-min Rain = 0
KSE2 141047Z 21002KT 18/13 A3002 RMK A01 T01810129  RH  072%=      5-min Rain = 0
KSE2 141048Z 21003KT 18/13 A3002 RMK A01 T01810129  RH  072%=      5-min Rain = 0
KSE2 141049Z 20003KT 18/13 A3002 RMK A01 T01810129  RH  072%=      5-min Rain = 0
KSE2 141050Z 20003KT 18/13 A3002 RMK A01 T01810129  RH  072%=      5-min Rain = 0
KSE2 141051Z 20003KT 18/13 A3002 RMK A01 T01810129  RH  072%=      5-min Rain = 0
KSE2 141052Z 20003KT 18/13 A3002 RMK A01 T01810129  RH  072%=      5-min Rain = 0
KSE2 141053Z 20003KT 18/13 A3002 RMK A01 T01810129  RH  072%=      5-min Rain = 0
KSE2 141054Z 20003KT 18/13 A3002 RMK A01 T01810129  RH  072%=      5-min Rain = 0
KSE2 141055Z 20003KT 18/13 A3002 RMK A01 T01810129  RH  072%=      5-min Rain = 0
KSE2 141056Z 19004KT 18/13 A3002 RMK A01 T01810130  RH  072%=      5-min Rain = 0
KSE2 141057Z 19003KT 18/13 A3002 RMK A01 T01810129  RH  072%=      5-min Rain = 0
KSE2 141058Z 19003KT 18/13 A3002 RMK A01 T01810129  RH  072%=      5-min Rain = 0
KSE2 141059Z 19003KT 18/13 A3002 RMK A01 T01810129  RH  072%=      5-min Rain = 0
KSE2 141100Z 19003KT 18/13 A3002 RMK A01 T01810130  RH  072%=      5-min Rain = 0
KSE2 141101Z 19003KT 18/13 A3002 RMK A01 T01810130  RH  072%=      5-min Rain = 0
KSE2 141102Z 19003KT 18/13 A3002 RMK A01 T01810130  RH  072%=      5-min Rain = 0
KSE2 141103Z 19003KT 18/13 A3002 RMK A01 T01810130  RH  072%=      5-min Rain = 0
KSE2 141104Z 19004KT 18/13 A3002 RMK A01 T01810130  RH  072%=      5-min Rain = 0
KSE2 141105Z 19004KT 18/13 A3002 RMK A01 T01820130  RH  072%=      5-min Rain = 0
KSE2 141106Z 20004KT 18/13 A3002 RMK A01 T01820130  RH  072%=      5-min Rain = 0
KSE2 141107Z 19004KT 18/13 A3002 RMK A01 T01820130  RH  072%=      5-min Rain = 0
KSE2 141108Z 19004KT 18/13 A3002 RMK A01 T01820130  RH  072%=      5-min Rain = 0
KSE2 141109Z 19004KT 18/13 A3002 RMK A01 T01820130  RH  072%=      5-min Rain = 0
KSE2 141110Z 19005KT 18/13 A3002 RMK A01 T01820130  RH  072%=      5-min Rain = 0
KSE2 141111Z 19004KT 18/13 A3002 RMK A01 T01820130  RH  072%=      5-min Rain = 0
KSE2 141112Z 19004KT 18/13 A3002 RMK A01 T01820130  RH  072%=      5-min Rain = 0
KSE2 141113Z 19004KT 18/13 A3002 RMK A01 T01820130  RH  072%=      5-min Rain = 0
KSE2 141114Z 19004KT 18/13 A3002 RMK A01 T01830130  RH  072%=      5-min Rain = 0
KSE2 141115Z 19003KT 18/13 A3002 RMK A01 T01830131  RH  072%=      5-min Rain = 0
KSE2 141116Z 18004KT 18/13 A3002 RMK A01 T01830131  RH  072%=      5-min Rain = 0
KSE2 141117Z 18003KT 18/13 A3002 RMK A01 T01820130  RH  072%=      5-min Rain = 0
KSE2 141118Z 17003KT 18/13 A3002 RMK A01 T01820130  RH  072%=      5-min Rain = 0
KSE2 141119Z 17003KT 18/13 A3002 RMK A01 T01820130  RH  072%=      5-min Rain = 0
KSE2 141120Z 17003KT 18/13 A3003 RMK A01 T01820130  RH  072%=      5-min Rain = 0
KSE2 141121Z 18003KT 18/13 A3003 RMK A01 T01820130  RH  072%=      5-min Rain = 0
KSE2 141122Z 18002KT 18/13 A3003 RMK A01 T01820130  RH  072%=      5-min Rain = 0
KSE2 141123Z 19001KT 18/13 A3003 RMK A01 T01810130  RH  072%=      5-min Rain = 0
KSE2 141124Z 20002KT 18/13 A3003 RMK A01 T01810130  RH  072%=      5-min Rain = 0
KSE2 141125Z 21002KT 18/13 A3003 RMK A01 T01810130  RH  072%=      5-min Rain = 0
KSE2 141126Z 20002KT 18/13 A3003 RMK A01 T01810130  RH  072%=      5-min Rain = 0
KSE2 141127Z 19002KT 18/13 A3004 RMK A01 T01800130  RH  072%=      5-min Rain = 0
KSE2 141128Z 19002KT 18/13 A3004 RMK A01 T01800131  RH  073%=      5-min Rain = 0
KSE2 141129Z 19002KT 18/13 A3004 RMK A01 T01800131  RH  073%=      5-min Rain = 0
KSE2 141130Z 19002KT 18/13 A3003 RMK A01 T01800130  RH  073%=      5-min Rain = 0
KSE2 141131Z 19003KT 18/13 A3003 RMK A01 T01800131  RH  073%=      5-min Rain = 0
KSE2 141132Z 19003KT 18/13 A3003 RMK A01 T01800131  RH  073%=      5-min Rain = 0
KSE2 141133Z 19003KT 18/13 A3004 RMK A01 T01800131  RH  073%=      5-min Rain = 0
KSE2 141134Z 19003KT 18/13 A3004 RMK A01 T01800131  RH  073%=      5-min Rain = 0
KSE2 141135Z 19003KT 18/13 A3004 RMK A01 T01800131  RH  073%=      5-min Rain = 0
KSE2 141136Z 19003KT 18/13 A3004 RMK A01 T01800132  RH  073%=      5-min Rain = 0
KSE2 141137Z 19003KT 18/13 A3004 RMK A01 T01800132  RH  073%=      5-min Rain = 0
KSE2 141138Z 20003KT 18/13 A3004 RMK A01 T01810132  RH  073%=      5-min Rain = 0
KSE2 141139Z 21003KT 18/13 A3004 RMK A01 T01810132  RH  073%=      5-min Rain = 0
KSE2 141140Z 20003KT 18/13 A3004 RMK A01 T01820132  RH  073%=      5-min Rain = 0
KSE2 141141Z 21003KT 18/13 A3004 RMK A01 T01820132  RH  073%=      5-min Rain = 0
KSE2 141142Z 20003KT 18/13 A3004 RMK A01 T01830132  RH  072%=      5-min Rain = 0
KSE2 141143Z 20003KT 18/13 A3004 RMK A01 T01830132  RH  072%=      5-min Rain = 0
KSE2 141144Z 20003KT 18/13 A3004 RMK A01 T01830132  RH  072%=      5-min Rain = 0
KSE2 141145Z 20003KT 18/13 A3004 RMK A01 T01830132  RH  072%=      5-min Rain = 0
KSE2 141146Z 19003KT 18/13 A3004 RMK A01 T01840133  RH  072%=      5-min Rain = 0
KSE2 141147Z 19002KT 18/13 A3004 RMK A01 T01840133  RH  072%=      5-min Rain = 0
KSE2 141148Z 18002KT 18/13 A3004 RMK A01 T01840133  RH  072%=      5-min Rain = 0
KSE2 141149Z 18003KT 18/13 A3004 RMK A01 T01840133  RH  072%=      5-min Rain = 0
KSE2 141150Z 17003KT 18/13 A3004 RMK A01 T01840133  RH  072%=      5-min Rain = 0
KSE2 141151Z 18002KT 18/13 A3004 RMK A01 T01840132  RH  072%=      5-min Rain = 0
KSE2 141152Z 17002KT 18/13 A3004 RMK A01 T01840132  RH  072%=      5-min Rain = 0
KSE2 141153Z 17002KT 18/13 A3004 RMK A01 T01830132  RH  072%=      5-min Rain = 0
KSE2 141154Z 18002KT 18/13 A3004 RMK A01 T01830132  RH  072%=      5-min Rain = 0
KSE2 141155Z 17002KT 18/13 A3004 RMK A01 T01820132  RH  072%=      5-min Rain = 0
KSE2 141156Z 17002KT 18/13 A3004 RMK A01 T01820132  RH  072%=      5-min Rain = 0
KSE2 141157Z 18003KT 18/13 A3004 RMK A01 T01810132  RH  073%=      5-min Rain = 0
KSE2 141158Z 18003KT 18/13 A3004 RMK A01 T01810132  RH  073%=      5-min Rain = 0
KSE2 141159Z 19003KT 18/13 A3004 RMK A01 T01810132  RH  073%=      5-min Rain = 0
KSE2 141200Z 19003KT 18/13 A3004 RMK A01 T01810132  RH  073%=      5-min Rain = 0
KSE2 141201Z 19003KT 18/13 A3004 RMK A01 T01810132  RH  073%=      5-min Rain = 0
KSE2 141202Z 20002KT 18/13 A3004 RMK A01 T01810132  RH  073%=      5-min Rain = 0
KSE2 141203Z 20003KT 18/13 A3004 RMK A01 T01810132  RH  073%=      5-min Rain = 0
KSE2 141204Z 20002KT 18/13 A3004 RMK A01 T01810132  RH  073%=      5-min Rain = 0
KSE2 141205Z 20002KT 18/13 A3004 RMK A01 T01810132  RH  073%=      5-min Rain = 0
KSE2 141206Z 20002KT 18/13 A3004 RMK A01 T01820133  RH  073%=      5-min Rain = 0
KSE2 141207Z 20002KT 18/13 A3004 RMK A01 T01820133  RH  073%=      5-min Rain = 0
KSE2 141208Z 20002KT 18/13 A3004 RMK A01 T01820133  RH  073%=      5-min Rain = 0
KSE2 141209Z 20003KT 18/13 A3004 RMK A01 T01820133  RH  073%=      5-min Rain = 0
KSE2 141210Z 19003KT 18/13 A3004 RMK A01 T01820133  RH  073%=      5-min Rain = 0
KSE2 141211Z 20003KT 18/13 A3005 RMK A01 T01830133  RH  073%=      5-min Rain = 0
KSE2 141212Z 19003KT 18/13 A3005 RMK A01 T01830133  RH  073%=      5-min Rain = 0
KSE2 141213Z 19003KT 18/13 A3005 RMK A01 T01830133  RH  073%=      5-min Rain = 0
KSE2 141214Z 19003KT 18/13 A3005 RMK A01 T01830133  RH  073%=      5-min Rain = 0
KSE2 141215Z 18002KT 18/13 A3005 RMK A01 T01830133  RH  073%=      5-min Rain = 0
KSE2 141216Z 18002KT 18/13 A3005 RMK A01 T01830133  RH  073%=      5-min Rain = 0
KSE2 141217Z 19002KT 18/13 A3005 RMK A01 T01830133  RH  073%=      5-min Rain = 0
KSE2 141218Z 19002KT 18/13 A3005 RMK A01 T01830133  RH  073%=      5-min Rain = 0
KSE2 141219Z 20003KT 18/13 A3005 RMK A01 T01840134  RH  073%=      5-min Rain = 0
KSE2 141220Z 21003KT 18/13 A3005 RMK A01 T01830133  RH  073%=      5-min Rain = 0
KSE2 141221Z 21003KT 18/13 A3005 RMK A01 T01830133  RH  072%=      5-min Rain = 0
KSE2 141222Z 21003KT 18/13 A3005 RMK A01 T01840134  RH  072%=      5-min Rain = 0
KSE2 141223Z 20003KT 18/13 A3005 RMK A01 T01840134  RH  072%=      5-min Rain = 0
KSE2 141224Z 21002KT 19/13 A3005 RMK A01 T01850134  RH  072%=      5-min Rain = 0
KSE2 141225Z 20002KT 19/13 A3005 RMK A01 T01850134  RH  072%=      5-min Rain = 0
KSE2 141226Z 21002KT 19/13 A3005 RMK A01 T01850134  RH  072%=      5-min Rain = 0
KSE2 141227Z 21002KT 19/13 A3005 RMK A01 T01850134  RH  072%=      5-min Rain = 0
KSE2 141228Z 21002KT 19/13 A3005 RMK A01 T01850134  RH  072%=      5-min Rain = 0
KSE2 141229Z 21002KT 19/14 A3005 RMK A01 T01860135  RH  072%=      5-min Rain = 0
KSE2 141230Z 21002KT 19/14 A3005 RMK A01 T01860135  RH  072%=      5-min Rain = 0
KSE2 141231Z 21003KT 19/14 A3005 RMK A01 T01870135  RH  072%=      5-min Rain = 0
KSE2 141232Z 20002KT 19/14 A3005 RMK A01 T01870135  RH  072%=      5-min Rain = 0
KSE2 141233Z 23003KT 19/14 A3005 RMK A01 T01870135  RH  071%=      5-min Rain = 0
KSE2 141234Z 23003KT 19/14 A3005 RMK A01 T01880135  RH  071%=      5-min Rain = 0
KSE2 141235Z 23003KT 19/14 A3005 RMK A01 T01880135  RH  071%=      5-min Rain = 0
KSE2 141236Z 23003KT 19/14 A3005 RMK A01 T01890135  RH  071%=      5-min Rain = 0
KSE2 141237Z 23002KT 19/14 A3005 RMK A01 T01900135  RH  070%=      5-min Rain = 0
KSE2 141238Z 24003KT 19/14 A3006 RMK A01 T01900135  RH  070%=      5-min Rain = 0
KSE2 141239Z 23004KT 19/14 A3006 RMK A01 T01910136  RH  070%=      5-min Rain = 0
KSE2 141240Z 24005KT 19/14 A3006 RMK A01 T01920137  RH  070%=      5-min Rain = 0
KSE2 141241Z 24004KT 19/14 A3006 RMK A01 T01930138  RH  070%=      5-min Rain = 0
KSE2 141242Z 25003KT 19/14 A3006 RMK A01 T01930137  RH  070%=      5-min Rain = 0
KSE2 141243Z 26004KT 19/14 A3006 RMK A01 T01930136  RH  070%=      5-min Rain = 0
KSE2 141244Z 25003KT 19/14 A3006 RMK A01 T01930136  RH  069%=      5-min Rain = 0
KSE2 141245Z 26003KT 19/14 A3006 RMK A01 T01930135  RH  069%=      5-min Rain = 0
KSE2 141246Z 25003KT 19/14 A3006 RMK A01 T01930135  RH  069%=      5-min Rain = 0
KSE2 141247Z 25003KT 19/14 A3006 RMK A01 T01930135  RH  069%=      5-min Rain = 0
KSE2 141248Z 25003KT 19/14 A3006 RMK A01 T01930135  RH  069%=      5-min Rain = 0
KSE2 141249Z 25003KT 19/14 A3006 RMK A01 T01930135  RH  069%=      5-min Rain = 0
KSE2 141250Z 24004KT 19/14 A3006 RMK A01 T01930136  RH  069%=      5-min Rain = 0
KSE2 141251Z 24003KT 19/14 A3006 RMK A01 T01930136  RH  069%=      5-min Rain = 0
KSE2 141252Z 25003KT 19/14 A3006 RMK A01 T01940135  RH  069%=      5-min Rain = 0
KSE2 141253Z 24003KT 19/14 A3006 RMK A01 T01940135  RH  069%=      5-min Rain = 0
KSE2 141254Z 24003KT 19/14 A3006 RMK A01 T01940135  RH  069%=      5-min Rain = 0
KSE2 141255Z 25003KT 19/14 A3006 RMK A01 T01940135  RH  069%=      5-min Rain = 0
KSE2 141256Z 25003KT 19/14 A3006 RMK A01 T01940135  RH  069%=      5-min Rain = 0
KSE2 141257Z 25004KT 19/14 A3006 RMK A01 T01940135  RH  069%=      5-min Rain = 0
KSE2 141258Z 25003KT 19/14 A3006 RMK A01 T01940136  RH  069%=      5-min Rain = 0
KSE2 141259Z 24003KT 19/14 A3006 RMK A01 T01940136  RH  069%=      5-min Rain = 0
KSE2 141300Z 24003KT 19/14 A3006 RMK A01 T01940136  RH  069%=      5-min Rain = 0
KSE2 141301Z 24002KT 20/14 A3006 RMK A01 T01950136  RH  069%=      5-min Rain = 0
KSE2 141302Z 25003KT 19/14 A3006 RMK A01 T01940136  RH  069%=      5-min Rain = 0
KSE2 141303Z 23002KT 19/14 A3006 RMK A01 T01940136  RH  069%=      5-min Rain = 0
KSE2 141304Z 24003KT 20/14 A3006 RMK A01 T01950136  RH  069%=      5-min Rain = 0
KSE2 141305Z 24003KT 20/14 A3006 RMK A01 T01950137  RH  069%=      5-min Rain = 0
KSE2 141306Z 23003KT 20/14 A3006 RMK A01 T01950137  RH  069%=      5-min Rain = 0
KSE2 141307Z 25002KT 20/14 A3006 RMK A01 T01950137  RH  069%=      5-min Rain = 0
KSE2 141308Z 25003KT 20/14 A3006 RMK A01 T01950137  RH  069%=      5-min Rain = 0
KSE2 141309Z 25002KT 20/14 A3006 RMK A01 T01950137  RH  069%=      5-min Rain = 0
KSE2 141310Z 24004KT 20/14 A3006 RMK A01 T01950137  RH  069%=      5-min Rain = 0
KSE2 141311Z 24004KT 20/14 A3005 RMK A01 T01950138  RH  069%=      5-min Rain = 0
KSE2 141312Z 25003KT 20/14 A3005 RMK A01 T01950138  RH  069%=      5-min Rain = 0
KSE2 141313Z 25004KT 20/14 A3005 RMK A01 T01950138  RH  070%=      5-min Rain = 0
KSE2 141314Z 25004KT 20/14 A3005 RMK A01 T01960139  RH  070%=      5-min Rain = 0
KSE2 141315Z 24002KT 20/14 A3005 RMK A01 T01950138  RH  070%=      5-min Rain = 0
KSE2 141321Z 23003KT 20/14 A3005 RMK A01 T01960139  RH  070%=      5-min Rain = 0
KSE2 141322Z 24003KT 20/14 A3005 RMK A01 T01960139  RH  070%=      5-min Rain = 0
KSE2 141323Z 24003KT 20/14 A3005 RMK A01 T01960139  RH  070%=      5-min Rain = 0
KSE2 141324Z 23003KT 20/14 A3005 RMK A01 T01960139  RH  069%=      5-min Rain = 0
KSE2 141325Z 24003KT 20/14 A3005 RMK A01 T01960139  RH  069%=      5-min Rain = 0
KSE2 141326Z 23003KT 20/14 A3005 RMK A01 T01960139  RH  069%=      5-min Rain = 0
KSE2 141327Z 23003KT 20/14 A3005 RMK A01 T01960139  RH  069%=      5-min Rain = 0
KSE2 141328Z 23003KT 20/14 A3005 RMK A01 T01970139  RH  069%=      5-min Rain = 0
KSE2 141329Z 23003KT 20/14 A3005 RMK A01 T01970139  RH  069%=      5-min Rain = 0
KSE2 141330Z 23003KT 20/14 A3005 RMK A01 T01960139  RH  069%=      5-min Rain = 0
KSE2 141331Z 24004KT 20/14 A3005 RMK A01 T01970139  RH  069%=      5-min Rain = 0
KSE2 141332Z 24003KT 20/14 A3005 RMK A01 T01970139  RH  069%=      5-min Rain = 0
KSE2 141333Z 24004KT 20/14 A3005 RMK A01 T01970139  RH  069%=      5-min Rain = 0
KSE2 141334Z 24004KT 20/14 A3005 RMK A01 T01970139  RH  069%=      5-min Rain = 0
KSE2 141335Z 23003KT 20/14 A3005 RMK A01 T01980139  RH  069%=      5-min Rain = 0
KSE2 141336Z 23004KT 20/14 A3005 RMK A01 T01980139  RH  069%=      5-min Rain = 0
KSE2 141337Z 23005KT 20/14 A3005 RMK A01 T01980139  RH  069%=      5-min Rain = 0
KSE2 141338Z 23004KT 20/14 A3005 RMK A01 T01980139  RH  069%=      5-min Rain = 0
KSE2 141339Z 23004KT 20/14 A3005 RMK A01 T01970139  RH  069%=      5-min Rain = 0
KSE2 141340Z 23004KT 20/14 A3005 RMK A01 T01980139  RH  069%=      5-min Rain = 0
KSE2 141341Z 22003KT 20/14 A3005 RMK A01 T01980139  RH  069%=      5-min Rain = 0
KSE2 141342Z 22004KT 20/14 A3006 RMK A01 T01980140  RH  069%=      5-min Rain = 0
KSE2 141343Z 21003KT 20/14 A3006 RMK A01 T01980140  RH  069%=      5-min Rain = 0
KSE2 141344Z 21003KT 20/14 A3006 RMK A01 T01980141  RH  069%=      5-min Rain = 0
KSE2 141345Z 22004KT 20/14 A3006 RMK A01 T01990141  RH  069%=      5-min Rain = 0
KSE2 141346Z 22003KT 20/14 A3006 RMK A01 T01990141  RH  069%=      5-min Rain = 0
KSE2 141347Z 21004KT 20/14 A3006 RMK A01 T01990141  RH  069%=      5-min Rain = 0
KSE2 141348Z 20003KT 20/14 A3006 RMK A01 T01980141  RH  069%=      5-min Rain = 0
KSE2 141349Z 20004KT 20/14 A3006 RMK A01 T01990142  RH  070%=      5-min Rain = 0
KSE2 141350Z 21004KT 20/14 A3006 RMK A01 T01990142  RH  070%=      5-min Rain = 0
KSE2 141351Z 21002KT 20/14 A3006 RMK A01 T01990142  RH  070%=      5-min Rain = 0
KSE2 141352Z 21004KT 20/14 A3006 RMK A01 T01990143  RH  070%=      5-min Rain = 0
KSE2 141353Z 19003KT 20/14 A3006 RMK A01 T01990143  RH  070%=      5-min Rain = 0
KSE2 141354Z 19002KT 20/14 A3006 RMK A01 T02000143  RH  070%=      5-min Rain = 0
KSE2 141355Z 21003KT 20/14 A3006 RMK A01 T02000144  RH  070%=      5-min Rain = 0
KSE2 141356Z 20003KT 20/14 A3006 RMK A01 T02000144  RH  070%=      5-min Rain = 0
KSE2 141357Z 20003KT 20/14 A3006 RMK A01 T02010144  RH  070%=      5-min Rain = 0
KSE2 141358Z 19004KT 20/15 A3006 RMK A01 T02010145  RH  070%=      5-min Rain = 0
KSE2 141359Z 20004KT 20/15 A3006 RMK A01 T02010146  RH  070%=      5-min Rain = 0
KSE2 141400Z 20004KT 20/15 A3006 RMK A01 T02020146  RH  070%=      5-min Rain = 0
KSE2 141401Z 19003KT 20/15 A3006 RMK A01 T02020147  RH  071%=      5-min Rain = 0
KSE2 141402Z 20004KT 20/15 A3006 RMK A01 T02020147  RH  071%=      5-min Rain = 0
KSE2 141403Z 19003KT 20/15 A3006 RMK A01 T02020147  RH  071%=      5-min Rain = 0
KSE2 141404Z 22004KT 20/15 A3006 RMK A01 T02030148  RH  071%=      5-min Rain = 0
KSE2 141405Z 21004KT 20/15 A3006 RMK A01 T02030148  RH  071%=      5-min Rain = 0
KSE2 141406Z 22003KT 20/15 A3006 RMK A01 T02030149  RH  071%=      5-min Rain = 0
KSE2 141407Z 22004KT 20/15 A3006 RMK A01 T02040149  RH  071%=      5-min Rain = 0
KSE2 141408Z 22004KT 20/15 A3006 RMK A01 T02040149  RH  071%=      5-min Rain = 0
KSE2 141409Z 22005KT 21/15 A3006 RMK A01 T02050150  RH  071%=      5-min Rain = 0
KSE2 141410Z 21005KT 21/15 A3006 RMK A01 T02050150  RH  071%=      5-min Rain = 0
KSE2 141411Z 22003KT 21/15 A3006 RMK A01 T02050150  RH  071%=      5-min Rain = 0
KSE2 141412Z 20003KT 21/15 A3006 RMK A01 T02060151  RH  071%=      5-min Rain = 0
KSE2 141413Z 21004KT 21/15 A3006 RMK A01 T02070151  RH  071%=      5-min Rain = 0
KSE2 141414Z 21004KT 21/15 A3006 RMK A01 T02080152  RH  070%=      5-min Rain = 0
KSE2 141415Z 20005KT 21/15 A3006 RMK A01 T02080152  RH  070%=      5-min Rain = 0
KSE2 141416Z 20004KT 21/15 A3006 RMK A01 T02090153  RH  070%=      5-min Rain = 0
KSE2 141417Z 21004KT 21/15 A3006 RMK A01 T02090154  RH  071%=      5-min Rain = 0
KSE2 141418Z 21005KT 21/15 A3007 RMK A01 T02090154  RH  071%=      5-min Rain = 0
KSE2 141419Z 21005KT 21/15 A3007 RMK A01 T02100154  RH  071%=      5-min Rain = 0
KSE2 141420Z 21005KT 21/16 A3007 RMK A01 T02100155  RH  071%=      5-min Rain = 0
KSE2 141421Z 21005KT 21/16 A3007 RMK A01 T02100156  RH  071%=      5-min Rain = 0
KSE2 141422Z 21006KT 21/16 A3007 RMK A01 T02100156  RH  071%=      5-min Rain = 0
KSE2 141423Z 21006KT 21/16 A3007 RMK A01 T02110157  RH  071%=      5-min Rain = 0
KSE2 141424Z 21006KT 21/16 A3007 RMK A01 T02110158  RH  071%=      5-min Rain = 0
KSE2 141425Z 21004KT 21/16 A3007 RMK A01 T02110159  RH  072%=      5-min Rain = 0
KSE2 141426Z 20006KT 21/16 A3007 RMK A01 T02110159  RH  072%=      5-min Rain = 0
KSE2 141427Z 22008KT 21/16 A3007 RMK A01 T02120160  RH  072%=      5-min Rain = 0
KSE2 141428Z 21006KT 21/16 A3007 RMK A01 T02120162  RH  073%=      5-min Rain = 0
KSE2 141429Z 21006KT 21/16 A3007 RMK A01 T02120162  RH  073%=      5-min Rain = 0
KSE2 141430Z 21007KT 21/16 A3007 RMK A01 T02130162  RH  073%=      5-min Rain = 0
KSE2 141431Z 20005KT 21/16 A3007 RMK A01 T02130161  RH  072%=      5-min Rain = 0
KSE2 141432Z 22006KT 21/16 A3007 RMK A01 T02130162  RH  073%=      5-min Rain = 0
KSE2 141433Z 20007KT 21/16 A3007 RMK A01 T02140163  RH  072%=      5-min Rain = 0
KSE2 141434Z 21007KT 21/16 A3007 RMK A01 T02140162  RH  073%=      5-min Rain = 0
KSE2 141435Z 20008KT 21/16 A3007 RMK A01 T02140163  RH  073%=      5-min Rain = 0
KSE2 141436Z 21006KT 21/16 A3007 RMK A01 T02140163  RH  073%=      5-min Rain = 0
KSE2 141437Z 21006KT 21/16 A3007 RMK A01 T02140163  RH  073%=      5-min Rain = 0
KSE2 141438Z 21006KT 22/16 A3007 RMK A01 T02150163  RH  072%=      5-min Rain = 0
KSE2 141439Z 22007KT 22/16 A3007 RMK A01 T02150163  RH  072%=      5-min Rain = 0
KSE2 141440Z 21005KT 22/16 A3007 RMK A01 T02150163  RH  072%=      5-min Rain = 0
KSE2 141441Z 19006KT 22/16 A3007 RMK A01 T02160164  RH  072%=      5-min Rain = 0
KSE2 141442Z 21005KT 22/17 A3007 RMK A01 T02180165  RH  072%=      5-min Rain = 0
KSE2 141443Z 20006KT 22/17 A3008 RMK A01 T02180165  RH  072%=      5-min Rain = 0
KSE2 141444Z 20006KT 22/17 A3008 RMK A01 T02190165  RH  071%=      5-min Rain = 0
KSE2 141445Z 20006KT 22/17 A3008 RMK A01 T02190166  RH  072%=      5-min Rain = 0
KSE2 141446Z 21008KT 22/17 A3008 RMK A01 T02180166  RH  072%=      5-min Rain = 0
KSE2 141447Z 21008KT 22/17 A3008 RMK A01 T02180166  RH  072%=      5-min Rain = 0
KSE2 141448Z 20009KT 22/17 A3008 RMK A01 T02170165  RH  072%=      5-min Rain = 0
KSE2 141449Z 22007KT 22/17 A3008 RMK A01 T02160165  RH  073%=      5-min Rain = 0
KSE2 141450Z 20006KT 22/17 A3008 RMK A01 T02170166  RH  073%=      5-min Rain = 0
KSE2 141451Z 22009KT 22/17 A3008 RMK A01 T02180166  RH  072%=      5-min Rain = 0
KSE2 141452Z 21006KT 22/17 A3007 RMK A01 T02180166  RH  072%=      5-min Rain = 0
KSE2 141453Z 21007KT 22/17 A3007 RMK A01 T02180167  RH  073%=      5-min Rain = 0
KSE2 141454Z 20007KT 22/17 A3007 RMK A01 T02180167  RH  072%=      5-min Rain = 0
KSE2 141455Z 21009KT 22/17 A3007 RMK A01 T02180167  RH  072%=      5-min Rain = 0
KSE2 141456Z 20009KT 22/17 A3007 RMK A01 T02190167  RH  072%=      5-min Rain = 0
KSE2 141457Z 21008KT 22/17 A3007 RMK A01 T02180167  RH  073%=      5-min Rain = 0
KSE2 141458Z 21006KT 22/17 A3007 RMK A01 T02180167  RH  073%=      5-min Rain = 0
KSE2 141459Z 21009KT 22/17 A3007 RMK A01 T02180166  RH  072%=      5-min Rain = 0
KSE2 141500Z 21009KT 22/17 A3007 RMK A01 T02180167  RH  073%=      5-min Rain = 0
KSE2 141501Z 22008KT 22/17 A3007 RMK A01 T02180168  RH  073%=      5-min Rain = 0
KSE2 141502Z 21009KT 22/17 A3007 RMK A01 T02180167  RH  073%=      5-min Rain = 0
KSE2 141503Z 21008KT 22/17 A3008 RMK A01 T02180167  RH  073%=      5-min Rain = 0
KSE2 141504Z 22006KT 22/17 A3008 RMK A01 T02180168  RH  073%=      5-min Rain = 0
KSE2 141505Z 21007KT 22/17 A3008 RMK A01 T02180168  RH  073%=      5-min Rain = 0
KSE2 141506Z 21005KT 22/17 A3008 RMK A01 T02190168  RH  073%=      5-min Rain = 0
KSE2 141507Z 21006KT 22/17 A3008 RMK A01 T02200168  RH  072%=      5-min Rain = 0
KSE2 141508Z 20006KT 22/17 A3008 RMK A01 T02210167  RH  072%=      5-min Rain = 0
KSE2 141509Z 20005KT 22/17 A3008 RMK A01 T02220168  RH  072%=      5-min Rain = 0
KSE2 141510Z 21007KT 22/17 A3008 RMK A01 T02230168  RH  071%=      5-min Rain = 0
KSE2 141511Z 21007KT 22/17 A3008 RMK A01 T02230169  RH  071%=      5-min Rain = 0
KSE2 141512Z 20007KT 22/17 A3008 RMK A01 T02230170  RH  072%=      5-min Rain = 0
KSE2 141513Z 19006KT 22/17 A3008 RMK A01 T02240171  RH  072%=      5-min Rain = 0
KSE2 141514Z 21005KT 23/17 A3008 RMK A01 T02250172  RH  072%=      5-min Rain = 0
KSE2 141515Z 20005KT 23/17 A3008 RMK A01 T02260171  RH  071%=      5-min Rain = 0
KSE2 141516Z 22007G12KT 23/17 A3008 RMK A01 T02280170  RH  070%=      5-min Rain = 0
KSE2 141517Z 22008KT 23/17 A3008 RMK A01 T02280168  RH  069%=      5-min Rain = 0
KSE2 141518Z 22007KT 23/17 A3008 RMK A01 T02280168  RH  069%=      5-min Rain = 0
KSE2 141519Z 21007KT 23/17 A3008 RMK A01 T02280168  RH  069%=      5-min Rain = 0
KSE2 141520Z 22007KT 23/17 A3008 RMK A01 T02270168  RH  069%=      5-min Rain = 0
KSE2 141521Z 21007KT 23/17 A3008 RMK A01 T02260169  RH  070%=      5-min Rain = 0
KSE2 141522Z 21006KT 23/17 A3008 RMK A01 T02270169  RH  070%=      5-min Rain = 0
KSE2 141523Z 19008KT 23/17 A3008 RMK A01 T02280170  RH  070%=      5-min Rain = 0
KSE2 141524Z 20008KT 23/17 A3008 RMK A01 T02290171  RH  070%=      5-min Rain = 0
KSE2 141525Z 20007KT 23/17 A3008 RMK A01 T02300170  RH  069%=      5-min Rain = 0
KSE2 141526Z 20009KT 23/17 A3008 RMK A01 T02300171  RH  069%=      5-min Rain = 0
KSE2 141527Z 19009KT 23/17 A3008 RMK A01 T02290170  RH  069%=      5-min Rain = 0
KSE2 141528Z 20010KT 23/17 A3008 RMK A01 T02290171  RH  070%=      5-min Rain = 0
KSE2 141529Z 20010KT 23/17 A3008 RMK A01 T02280170  RH  070%=      5-min Rain = 0
KSE2 141530Z 20008KT 23/17 A3008 RMK A01 T02270169  RH  070%=      5-min Rain = 0
KSE2 141531Z 20007KT 23/17 A3008 RMK A01 T02260169  RH  070%=      5-min Rain = 0
KSE2 141532Z 20007KT 23/17 A3008 RMK A01 T02260169  RH  070%=      5-min Rain = 0
KSE2 141533Z 20008KT 23/17 A3008 RMK A01 T02260169  RH  070%=      5-min Rain = 0
KSE2 141534Z 21010KT 23/17 A3008 RMK A01 T02270169  RH  070%=      5-min Rain = 0
KSE2 141535Z 21008KT 23/17 A3008 RMK A01 T02260169  RH  070%=      5-min Rain = 0
KSE2 141536Z 22009KT 23/17 A3008 RMK A01 T02250169  RH  071%=      5-min Rain = 0
KSE2 141537Z 21008KT 22/17 A3008 RMK A01 T02240168  RH  071%=      5-min Rain = 0
KSE2 141538Z 21008KT 22/17 A3008 RMK A01 T02240168  RH  071%=      5-min Rain = 0
KSE2 141539Z 19007KT 22/17 A3008 RMK A01 T02230168  RH  071%=      5-min Rain = 0
KSE2 141540Z 18007KT 22/17 A3008 RMK A01 T02240169  RH  071%=      5-min Rain = 0
KSE2 141541Z 19007KT 23/17 A3008 RMK A01 T02260170  RH  071%=      5-min Rain = 0
KSE2 141542Z 20006KT 23/17 A3008 RMK A01 T02270171  RH  070%=      5-min Rain = 0
KSE2 141543Z 19006KT 23/17 A3008 RMK A01 T02280170  RH  070%=      5-min Rain = 0
KSE2 141544Z 20008KT 23/17 A3008 RMK A01 T02290170  RH  069%=      5-min Rain = 0
KSE2 141545Z 19007KT 23/17 A3008 RMK A01 T02280169  RH  069%=      5-min Rain = 0
KSE2 141546Z 20005KT 23/17 A3008 RMK A01 T02280169  RH  070%=      5-min Rain = 0
KSE2 141547Z 19007KT 23/17 A3008 RMK A01 T02280170  RH  070%=      5-min Rain = 0
KSE2 141548Z 21005KT 23/17 A3008 RMK A01 T02280170  RH  070%=      5-min Rain = 0
KSE2 141549Z 22008KT 23/17 A3008 RMK A01 T02280169  RH  069%=      5-min Rain = 0
KSE2 141550Z 22006KT 23/17 A3008 RMK A01 T02270168  RH  069%=      5-min Rain = 0
KSE2 141551Z 22008KT 23/17 A3008 RMK A01 T02270169  RH  070%=      5-min Rain = 0
KSE2 141552Z 23006KT 23/17 A3008 RMK A01 T02270169  RH  070%=      5-min Rain = 0
KSE2 141553Z 22005KT 23/17 A3008 RMK A01 T02260169  RH  070%=      5-min Rain = 0
KSE2 141554Z 22006KT 23/17 A3008 RMK A01 T02280170  RH  070%=      5-min Rain = 0
KSE2 141555Z 21007KT 23/17 A3008 RMK A01 T02280170  RH  070%=      5-min Rain = 0
KSE2 141556Z 21006KT 23/17 A3008 RMK A01 T02280170  RH  069%=      5-min Rain = 0
KSE2 141557Z 20005KT 23/17 A3008 RMK A01 T02280170  RH  070%=      5-min Rain = 0
KSE2 141558Z 21005KT 23/17 A3008 RMK A01 T02290170  RH  069%=      5-min Rain = 0
KSE2 141559Z 21004KT 23/17 A3008 RMK A01 T02300170  RH  069%=      5-min Rain = 0
KSE2 141600Z 21005KT 23/17 A3008 RMK A01 T02300170  RH  069%=      5-min Rain = 0
KSE2 141601Z 20007KT 23/17 A3008 RMK A01 T02320170  RH  068%=      5-min Rain = 0
KSE2 141602Z 21006KT 23/17 A3008 RMK A01 T02320170  RH  068%=      5-min Rain = 0
KSE2 141603Z 22008KT 23/17 A3008 RMK A01 T02320171  RH  068%=      5-min Rain = 0
KSE2 141604Z 22007KT 23/17 A3008 RMK A01 T02320171  RH  068%=      5-min Rain = 0
KSE2 141605Z 21004KT 23/17 A3008 RMK A01 T02340172  RH  068%=      5-min Rain = 0
KSE2 141606Z 23005KT 24/17 A3008 RMK A01 T02370174  RH  067%=      5-min Rain = 0
KSE2 141607Z 22005KT 24/17 A3008 RMK A01 T02390173  RH  066%=      5-min Rain = 0
KSE2 141608Z 20006KT 24/17 A3008 RMK A01 T02390172  RH  066%=      5-min Rain = 0
KSE2 141609Z 21005KT 24/17 A3008 RMK A01 T02410173  RH  066%=      5-min Rain = 0
KSE2 141610Z 22006KT 24/17 A3007 RMK A01 T02420172  RH  065%=      5-min Rain = 0
KSE2 141611Z 21005KT 24/17 A3007 RMK A01 T02390171  RH  065%=      5-min Rain = 0
KSE2 141612Z 16004KT 24/17 A3007 RMK A01 T02390172  RH  066%=      5-min Rain = 0
KSE2 141613Z 19005KT 24/17 A3007 RMK A01 T02410174  RH  066%=      5-min Rain = 0
KSE2 141614Z 20004KT 24/17 A3007 RMK A01 T02430174  RH  065%=      5-min Rain = 0
KSE2 141615Z 23005KT 24/17 A3007 RMK A01 T02430171  RH  064%=      5-min Rain = 0
KSE2 141616Z 23003KT 24/17 A3007 RMK A01 T02410171  RH  065%=      5-min Rain = 0
KSE2 141617Z 20004G9KT 24/17 A3007 RMK A01 T02420173  RH  065%=      5-min Rain = 0
KSE2 141618Z 19007KT 24/17 A3007 RMK A01 T02430173  RH  065%=      5-min Rain = 0
KSE2 141619Z 18006KT 24/17 A3007 RMK A01 T02420173  RH  065%=      5-min Rain = 0
KSE2 141620Z 21006KT 24/17 A3007 RMK A01 T02420174  RH  066%=      5-min Rain = 0
KSE2 141621Z 20005KT 24/17 A3007 RMK A01 T02410174  RH  066%=      5-min Rain = 0
KSE2 141622Z 19007KT 24/17 A3007 RMK A01 T02420174  RH  066%=      5-min Rain = 0
KSE2 141623Z 20006KT 24/17 A3007 RMK A01 T02430174  RH  066%=      5-min Rain = 0
KSE2 141624Z 19007KT 24/17 A3007 RMK A01 T02430174  RH  065%=      5-min Rain = 0
KSE2 141625Z 19006KT 24/17 A3007 RMK A01 T02410174  RH  066%=      5-min Rain = 0
KSE2 141626Z 18006KT 24/17 A3007 RMK A01 T02410173  RH  066%=      5-min Rain = 0
KSE2 141627Z 20005KT 24/17 A3007 RMK A01 T02400173  RH  066%=      5-min Rain = 0
KSE2 141628Z 18003KT 24/17 A3007 RMK A01 T02390174  RH  067%=      5-min Rain = 0
KSE2 141629Z 20006KT 24/17 A3007 RMK A01 T02400174  RH  067%=      5-min Rain = 0
KSE2 141630Z 21006KT 24/17 A3007 RMK A01 T02410174  RH  066%=      5-min Rain = 0
KSE2 141631Z 20006KT 24/17 A3006 RMK A01 T02410174  RH  066%=      5-min Rain = 0
KSE2 141632Z 18005KT 24/17 A3006 RMK A01 T02400174  RH  066%=      5-min Rain = 0
KSE2 141633Z 18004KT 24/17 A3006 RMK A01 T02390173  RH  066%=      5-min Rain = 0
KSE2 141634Z 19004KT 24/17 A3006 RMK A01 T02400174  RH  067%=      5-min Rain = 0
KSE2 141635Z 22007KT 24/18 A3006 RMK A01 T02420175  RH  066%=      5-min Rain = 0
KSE2 141636Z 22006KT 24/17 A3006 RMK A01 T02420174  RH  066%=      5-min Rain = 0
KSE2 141637Z 21006KT 24/17 A3006 RMK A01 T02410174  RH  066%=      5-min Rain = 0
KSE2 141638Z 22005KT 24/18 A3006 RMK A01 T02400175  RH  067%=      5-min Rain = 0
KSE2 141639Z 21005KT 24/17 A3006 RMK A01 T02410174  RH  066%=      5-min Rain = 0
KSE2 141640Z 20006KT 24/18 A3006 RMK A01 T02400175  RH  067%=      5-min Rain = 0
KSE2 141641Z 21007KT 24/18 A3006 RMK A01 T02400175  RH  067%=      5-min Rain = 0
KSE2 141642Z 20005KT 24/17 A3006 RMK A01 T02400174  RH  067%=      5-min Rain = 0
KSE2 141643Z 21005KT 24/18 A3006 RMK A01 T02390175  RH  067%=      5-min Rain = 0
KSE2 141644Z 16005KT 24/18 A3006 RMK A01 T02410176  RH  067%=      5-min Rain = 0
KSE2 141645Z 15004KT 24/18 A3006 RMK A01 T02420176  RH  066%=      5-min Rain = 0
KSE2 141646Z 16004KT 24/18 A3006 RMK A01 T02410176  RH  067%=      5-min Rain = 0
KSE2 141647Z 20004KT 24/18 A3006 RMK A01 T02410176  RH  067%=      5-min Rain = 0
KSE2 141648Z 19006KT 24/18 A3006 RMK A01 T02420177  RH  067%=      5-min Rain = 0
KSE2 141649Z 19005KT 24/18 A3006 RMK A01 T02420177  RH  067%=      5-min Rain = 0
KSE2 141650Z 18007KT 24/18 A3006 RMK A01 T02420177  RH  067%=      5-min Rain = 0
KSE2 141651Z 19007KT 24/18 A3006 RMK A01 T02420177  RH  067%=      5-min Rain = 0
KSE2 141652Z 21007KT 24/18 A3006 RMK A01 T02420177  RH  067%=      5-min Rain = 0
KSE2 141653Z 22007KT 24/18 A3006 RMK A01 T02410177  RH  067%=      5-min Rain = 0
KSE2 141654Z 22007KT 24/18 A3006 RMK A01 T02420177  RH  067%=      5-min Rain = 0
KSE2 141655Z 21007KT 24/18 A3006 RMK A01 T02410177  RH  067%=      5-min Rain = 0
KSE2 141656Z 23007KT 24/18 A3006 RMK A01 T02410177  RH  067%=      5-min Rain = 0
KSE2 141657Z 21006KT 24/18 A3006 RMK A01 T02410177  RH  067%=      5-min Rain = 0
KSE2 141658Z 22006KT 24/18 A3006 RMK A01 T02410177  RH  067%=      5-min Rain = 0
KSE2 141659Z 20005KT 24/18 A3006 RMK A01 T02410177  RH  067%=      5-min Rain = 0
KSE2 141700Z 21005KT 24/18 A3006 RMK A01 T02420177  RH  067%=      5-min Rain = 0
KSE2 141701Z 25006KT 24/18 A3006 RMK A01 T02420177  RH  067%=      5-min Rain = 0
KSE2 141702Z 23006KT 24/18 A3006 RMK A01 T02430177  RH  066%=      5-min Rain = 0
KSE2 141703Z 22007KT 24/18 A3006 RMK A01 T02430177  RH  066%=      5-min Rain = 0
KSE2 141704Z 21006KT 24/18 A3006 RMK A01 T02430177  RH  067%=      5-min Rain = 0
KSE2 141705Z 22004KT 24/18 A3006 RMK A01 T02420177  RH  067%=      5-min Rain = 0
KSE2 141706Z 24004KT 24/18 A3006 RMK A01 T02420177  RH  067%=      5-min Rain = 0
KSE2 141707Z 24008KT 24/18 A3006 RMK A01 T02440177  RH  066%=      5-min Rain = 0
KSE2 141708Z 24008KT 24/18 A3006 RMK A01 T02440177  RH  066%=      5-min Rain = 0
KSE2 141709Z 24007KT 24/18 A3006 RMK A01 T02440177  RH  066%=      5-min Rain = 0
KSE2 141710Z 24007KT 24/18 A3006 RMK A01 T02430177  RH  067%=      5-min Rain = 0
KSE2 141711Z 23006KT 24/18 A3006 RMK A01 T02420177  RH  067%=      5-min Rain = 0
KSE2 141712Z 22005KT 24/18 A3006 RMK A01 T02430177  RH  067%=      5-min Rain = 0
KSE2 141713Z 21005KT 24/18 A3006 RMK A01 T02430177  RH  067%=      5-min Rain = 0
KSE2 141714Z 20005KT 24/18 A3006 RMK A01 T02440178  RH  067%=      5-min Rain = 0
KSE2 141715Z 20006KT 24/18 A3006 RMK A01 T02440178  RH  066%=      5-min Rain = 0
KSE2 141716Z 24005KT 25/18 A3006 RMK A01 T02450178  RH  066%=      5-min Rain = 0
KSE2 141717Z 24008KT 25/18 A3006 RMK A01 T02450178  RH  066%=      5-min Rain = 0
KSE2 141718Z 22008KT 25/18 A3006 RMK A01 T02450177  RH  066%=      5-min Rain = 0
KSE2 141719Z 22007KT 24/18 A3006 RMK A01 T02440178  RH  066%=      5-min Rain = 0
KSE2 141720Z 22008KT 24/18 A3006 RMK A01 T02440177  RH  066%=      5-min Rain = 0
KSE2 141721Z 22006KT 24/18 A3006 RMK A01 T02430177  RH  067%=      5-min Rain = 0
KSE2 141722Z 20007KT 24/18 A3006 RMK A01 T02430177  RH  067%=      5-min Rain = 0
KSE2 141723Z 23005KT 24/18 A3006 RMK A01 T02440178  RH  067%=      5-min Rain = 0
KSE2 141724Z 22005KT 25/18 A3006 RMK A01 T02450178  RH  066%=      5-min Rain = 0
KSE2 141725Z 21006KT 25/18 A3006 RMK A01 T02460178  RH  066%=      5-min Rain = 0
KSE2 141726Z 21008KT 25/18 A3006 RMK A01 T02460178  RH  066%=      5-min Rain = 0
KSE2 141727Z 22008KT 25/18 A3006 RMK A01 T02460178  RH  066%=      5-min Rain = 0
KSE2 141728Z 23006KT 25/18 A3006 RMK A01 T02460178  RH  066%=      5-min Rain = 0
KSE2 141729Z 23009KT 25/18 A3006 RMK A01 T02460178  RH  066%=      5-min Rain = 0
KSE2 141730Z 21006KT 25/18 A3006 RMK A01 T02450178  RH  066%=      5-min Rain = 0
KSE2 141731Z 21006G11KT 25/18 A3006 RMK A01 T02450178  RH  066%=      5-min Rain = 0
KSE2 141732Z 21010KT 25/18 A3006 RMK A01 T02460178  RH  066%=      5-min Rain = 0
KSE2 141733Z 21007KT 25/18 A3005 RMK A01 T02450178  RH  066%=      5-min Rain = 0
KSE2 141734Z 22006KT 25/18 A3005 RMK A01 T02450177  RH  066%=      5-min Rain = 0
KSE2 141735Z 23006KT 24/18 A3005 RMK A01 T02440177  RH  066%=      5-min Rain = 0
KSE2 141736Z 23006KT 24/18 A3005 RMK A01 T02440177  RH  066%=      5-min Rain = 0
KSE2 141737Z 21008KT 24/18 A3005 RMK A01 T02440177  RH  066%=      5-min Rain = 0
KSE2 141738Z 22007KT 24/18 A3005 RMK A01 T02440178  RH  067%=      5-min Rain = 0
KSE2 141739Z 23009KT 24/18 A3005 RMK A01 T02440177  RH  066%=      5-min Rain = 0
KSE2 141740Z 22008KT 24/18 A3005 RMK A01 T02440177  RH  066%=      5-min Rain = 0
KSE2 141741Z 21007KT 24/18 A3005 RMK A01 T02440177  RH  066%=      5-min Rain = 0
KSE2 141742Z 21006KT 24/18 A3005 RMK A01 T02440177  RH  067%=      5-min Rain = 0
KSE2 141743Z 21008KT 24/18 A3005 RMK A01 T02440177  RH  066%=      5-min Rain = 0
KSE2 141744Z 21006KT 24/18 A3005 RMK A01 T02440178  RH  066%=      5-min Rain = 0
KSE2 141745Z 20006KT 25/18 A3005 RMK A01 T02450178  RH  066%=      5-min Rain = 0
KSE2 141746Z 19005KT 25/18 A3005 RMK A01 T02480180  RH  066%=      5-min Rain = 0
KSE2 141747Z 20006KT 25/18 A3005 RMK A01 T02510181  RH  065%=      5-min Rain = 0
KSE2 141748Z 18007KT 25/18 A3005 RMK A01 T02540181  RH  064%=      5-min Rain = 0
KSE2 141749Z 18008KT 26/18 A3005 RMK A01 T02550180  RH  063%=      5-min Rain = 0
KSE2 141750Z 20007KT 25/18 A3005 RMK A01 T02540179  RH  063%=      5-min Rain = 0
KSE2 141751Z 20005KT 25/18 A3004 RMK A01 T02520179  RH  064%=      5-min Rain = 0
KSE2 141752Z 20004KT 26/18 A3004 RMK A01 T02550180  RH  063%=      5-min Rain = 0
KSE2 141753Z 22006KT 26/18 A3004 RMK A01 T02570180  RH  062%=      5-min Rain = 0
KSE2 141754Z 22006KT 26/18 A3004 RMK A01 T02600179  RH  061%=      5-min Rain = 0
KSE2 141755Z 19005KT 26/18 A3004 RMK A01 T02570178  RH  062%=      5-min Rain = 0
KSE2 141756Z 19004KT 26/18 A3004 RMK A01 T02550179  RH  063%=      5-min Rain = 0
KSE2 141757Z 18005KT 26/18 A3004 RMK A01 T02550179  RH  063%=      5-min Rain = 0
KSE2 141758Z 20005KT 26/18 A3004 RMK A01 T02570179  RH  062%=      5-min Rain = 0
KSE2 141759Z 19006KT 26/18 A3004 RMK A01 T02570179  RH  062%=      5-min Rain = 0
KSE2 141800Z 20005KT 26/18 A3004 RMK A01 T02560179  RH  062%=      5-min Rain = 0
KSE2 141801Z 22003KT 25/18 A3004 RMK A01 T02530177  RH  063%=      5-min Rain = 0
KSE2 141802Z 20004KT 25/18 A3004 RMK A01 T02500177  RH  064%=      5-min Rain = 0
KSE2 141803Z 19006KT 25/18 A3004 RMK A01 T02510178  RH  064%=      5-min Rain = 0
KSE2 141804Z 18004KT 25/18 A3004 RMK A01 T02540180  RH  064%=      5-min Rain = 0
KSE2 141805Z 17007KT 26/18 A3003 RMK A01 T02590181  RH  062%=      5-min Rain = 0
KSE2 141806Z 14007KT 26/18 A3003 RMK A01 T02600180  RH  061%=      5-min Rain = 0
KSE2 141807Z 18006KT 26/18 A3003 RMK A01 T02590179  RH  061%=      5-min Rain = 0
KSE2 141808Z 19008KT 26/18 A3004 RMK A01 T02590177  RH  060%=      5-min Rain = 0
KSE2 141809Z 19005KT 26/18 A3004 RMK A01 T02580177  RH  061%=      5-min Rain = 0
KSE2 141810Z 17006KT 26/18 A3004 RMK A01 T02570178  RH  062%=      5-min Rain = 0
KSE2 141811Z 16004KT 26/18 A3003 RMK A01 T02580178  RH  062%=      5-min Rain = 0
KSE2 141812Z 16004KT 26/18 A3003 RMK A01 T02600179  RH  061%=      5-min Rain = 0
KSE2 141813Z 19004KT 26/18 A3003 RMK A01 T02610179  RH  061%=      5-min Rain = 0
KSE2 141814Z 21006KT 26/18 A3003 RMK A01 T02620180  RH  060%=      5-min Rain = 0
KSE2 141815Z 20005KT 26/18 A3003 RMK A01 T02630180  RH  060%=      5-min Rain = 0
KSE2 141816Z 19006KT 27/18 A3002 RMK A01 T02650179  RH  060%=      5-min Rain = 0
KSE2 141817Z 17006KT 26/18 A3002 RMK A01 T02640178  RH  059%=      5-min Rain = 0
KSE2 141818Z 16008KT 26/18 A3002 RMK A01 T02620177  RH  059%=      5-min Rain = 0
KSE2 141819Z 15006KT 26/18 A3002 RMK A01 T02590176  RH  060%=      5-min Rain = 0
KSE2 141820Z 17006KT 26/18 A3002 RMK A01 T02590176  RH  060%=      5-min Rain = 0
KSE2 141821Z 16006KT 26/17 A3002 RMK A01 T02590174  RH  059%=      5-min Rain = 0
KSE2 141822Z 16003KT 26/18 A3002 RMK A01 T02590176  RH  060%=      5-min Rain = 0
KSE2 141823Z 17006KT 26/18 A3002 RMK A01 T02610178  RH  060%=      5-min Rain = 0
KSE2 141824Z 19004KT 26/18 A3002 RMK A01 T02640176  RH  059%=      5-min Rain = 0
KSE2 141825Z 21005KT 26/18 A3002 RMK A01 T02640175  RH  058%=      5-min Rain = 0
KSE2 141826Z 21003KT 26/18 A3002 RMK A01 T02640177  RH  059%=      5-min Rain = 0
KSE2 141827Z 18002KT 26/18 A3002 RMK A01 T02640178  RH  059%=      5-min Rain = 0
KSE2 141828Z 17004KT 27/18 A3001 RMK A01 T02680181  RH  059%=      5-min Rain = 0
KSE2 141829Z 16005KT 27/18 A3001 RMK A01 T02720180  RH  057%=      5-min Rain = 0
KSE2 141830Z 16007G12KT 27/18 A3001 RMK A01 T02730181  RH  057%=      5-min Rain = 0
KSE2 141831Z 18008KT 27/18 A3001 RMK A01 T02730178  RH  056%=      5-min Rain = 0
KSE2 141832Z 17007KT 27/18 A3001 RMK A01 T02710177  RH  056%=      5-min Rain = 0
KSE2 141833Z 17004KT 27/18 A3001 RMK A01 T02690175  RH  056%=      5-min Rain = 0
KSE2 141834Z 14003KT 27/18 A3001 RMK A01 T02680175  RH  057%=      5-min Rain = 0
KSE2 141835Z 13008KT 27/18 A3001 RMK A01 T02700178  RH  057%=      5-min Rain = 0
KSE2 141836Z 13007KT 28/18 A3001 RMK A01 T02750181  RH  057%=      5-min Rain = 0
KSE2 141837Z 14009KT 28/18 A3001 RMK A01 T02770179  RH  055%=      5-min Rain = 0
KSE2 141838Z 17004KT 27/18 A3001 RMK A01 T02720176  RH  056%=      5-min Rain = 0
KSE2 141839Z 15009KT 27/18 A3001 RMK A01 T02700177  RH  057%=      5-min Rain = 0
KSE2 141840Z 14007KT 27/18 A3001 RMK A01 T02700177  RH  057%=      5-min Rain = 0
KSE2 141841Z 14006KT 27/18 A3001 RMK A01 T02710179  RH  057%=      5-min Rain = 0
KSE2 141842Z 16005KT 28/18 A30 RMK A01 T02770181  RH  056%=      5-min Rain = 0
KSE2 141843Z 19007KT 28/18 A30 RMK A01 T02810180  RH  054%=      5-min Rain = 0
KSE2 141844Z 19007KT 28/18 A30 RMK A01 T02830176  RH  052%=      5-min Rain = 0
KSE2 141845Z 19008KT 28/18 A30 RMK A01 T02830176  RH  053%=      5-min Rain = 0
KSE2 141846Z 18008KT 28/17 A30 RMK A01 T02820174  RH  052%=      5-min Rain = 0
KSE2 141847Z 18006KT 28/17 A30 RMK A01 T02790172  RH  052%=      5-min Rain = 0
KSE2 141848Z 17006KT 28/17 A30 RMK A01 T02770172  RH  053%=      5-min Rain = 0
KSE2 141849Z 15004KT 28/17 A30 RMK A01 T02750170  RH  052%=      5-min Rain = 0
KSE2 141850Z 17006KT 28/17 A30 RMK A01 T02750170  RH  053%=      5-min Rain = 0
KSE2 141851Z 22006KT 28/17 A30 RMK A01 T02790168  RH  051%=      5-min Rain = 0
KSE2 141852Z 22006KT 28/17 A30 RMK A01 T02800167  RH  050%=      5-min Rain = 0
KSE2 141853Z 21003KT 28/17 A30 RMK A01 T02810170  RH  051%=      5-min Rain = 0
KSE2 141854Z 16004KT 28/17 A30 RMK A01 T02830174  RH  052%=      5-min Rain = 0
KSE2 141855Z 17003KT 28/17 A30 RMK A01 T02840174  RH  051%=      5-min Rain = 0
KSE2 141856Z 15005KT 28/18 A30 RMK A01 T02840178  RH  052%=      5-min Rain = 0
KSE2 141857Z 15005KT 28/18 A30 RMK A01 T02830176  RH  052%=      5-min Rain = 0
KSE2 141858Z 15004KT 28/18 A30 RMK A01 T02810177  RH  053%=      5-min Rain = 0
KSE2 141859Z 15005KT 28/18 A30 RMK A01 T02810176  RH  053%=      5-min Rain = 0
KSE2 141900Z 22005KT 28/17 A2999 RMK A01 T02800174  RH  053%=      5-min Rain = 0
KSE2 141901Z 24004KT 28/17 A2999 RMK A01 T02790166  RH  050%=      5-min Rain = 0
KSE2 141902Z 22002KT 28/17 A2999 RMK A01 T02790166  RH  050%=      5-min Rain = 0
KSE2 141903Z 12003KT 28/17 A2999 RMK A01 T02820170  RH  051%=      5-min Rain = 0
KSE2 141904Z 17004G9KT 29/17 A2999 RMK A01 T02860173  RH  050%=      5-min Rain = 0
KSE2 141905Z 16004KT 29/18 A2999 RMK A01 T02870175  RH  050%=      5-min Rain = 0
KSE2 141906Z 17006KT 29/17 A2999 RMK A01 T02870174  RH  050%=      5-min Rain = 0
KSE2 141907Z 18005KT 28/17 A2999 RMK A01 T02840172  RH  051%=      5-min Rain = 0
KSE2 141908Z 14008KT 28/17 A2999 RMK A01 T02810170  RH  051%=      5-min Rain = 0
KSE2 141909Z 13008KT 28/17 A2999 RMK A01 T02800171  RH  051%=      5-min Rain = 0
KSE2 141910Z 18008KT 28/17 A2999 RMK A01 T02840173  RH  051%=      5-min Rain = 0
KSE2 141911Z 18005KT 29/17 A2999 RMK A01 T02850171  RH  050%=      5-min Rain = 0
KSE2 141912Z 19006KT 28/17 A2999 RMK A01 T02820169  RH  050%=      5-min Rain = 0
KSE2 141913Z 19005KT 28/17 A2999 RMK A01 T02790170  RH  051%=      5-min Rain = 0
KSE2 141914Z 21003KT 28/17 A2999 RMK A01 T02780170  RH  052%=      5-min Rain = 0
KSE2 141915Z 17002KT 28/17 A2999 RMK A01 T02770169  RH  052%=      5-min Rain = 0
KSE2 141916Z 14005KT 28/17 A2999 RMK A01 T02770168  RH  051%=      5-min Rain = 0
KSE2 141917Z 16003KT 28/17 A2999 RMK A01 T02770168  RH  051%=      5-min Rain = 0
KSE2 141918Z 19006KT 28/17 A2999 RMK A01 T02790171  RH  052%=      5-min Rain = 0
KSE2 141919Z 20008KT 28/17 A2999 RMK A01 T02820171  RH  051%=      5-min Rain = 0
KSE2 141920Z 18006KT 28/17 A2999 RMK A01 T02830171  RH  051%=      5-min Rain = 0
KSE2 141921Z 19008KT 28/17 A2999 RMK A01 T02830171  RH  051%=      5-min Rain = 0
KSE2 141922Z 18004KT 28/17 A2999 RMK A01 T02820170  RH  051%=      5-min Rain = 0
KSE2 141923Z 16005KT 28/17 A2999 RMK A01 T02830171  RH  051%=      5-min Rain = 0
KSE2 141924Z 14003KT 29/17 A2999 RMK A01 T02850171  RH  050%=      5-min Rain = 0
KSE2 141925Z 13003KT 29/17 A2999 RMK A01 T02860171  RH  050%=      5-min Rain = 0
KSE2 141926Z 21003KT 29/17 A2999 RMK A01 T02870170  RH  049%=      5-min Rain = 0
KSE2 141927Z 24006KT 29/17 A2999 RMK A01 T02870167  RH  048%=      5-min Rain = 0
KSE2 141928Z 26003KT 29/17 A2999 RMK A01 T02860165  RH  048%=      5-min Rain = 0
KSE2 141929Z 23002KT 29/17 A2999 RMK A01 T02850165  RH  048%=      5-min Rain = 0
KSE2 141930Z 17003KT 28/17 A2999 RMK A01 T02840166  RH  049%=      5-min Rain = 0
KSE2 141931Z 16004KT 29/17 A2999 RMK A01 T02880170  RH  049%=      5-min Rain = 0
KSE2 141932Z 14002KT 29/17 A2999 RMK A01 T02910167  RH  047%=      5-min Rain = 0
KSE2 141933Z 18007KT 29/17 A2999 RMK A01 T02910167  RH  047%=      5-min Rain = 0
KSE2 141934Z 21008KT 29/17 A2999 RMK A01 T02910167  RH  047%=      5-min Rain = 0
KSE2 141935Z 21005KT 29/17 A2999 RMK A01 T02900168  RH  048%=      5-min Rain = 0
KSE2 141936Z 20004KT 29/17 A2998 RMK A01 T02900168  RH  048%=      5-min Rain = 0
KSE2 141937Z 19002KT 29/17 A2998 RMK A01 T02890167  RH  048%=      5-min Rain = 0
KSE2 141938Z 25000KT 29/17 A2998 RMK A01 T02890169  RH  048%=      5-min Rain = 0
KSE2 141939Z 24003G8KT 29/17 A2998 RMK A01 T02920169  RH  047%=      5-min Rain = 0
KSE2 141940Z 26006KT 30/17 A2998 RMK A01 T02960165  RH  045%=      5-min Rain = 0
KSE2 141941Z 24006KT 29/16 A2998 RMK A01 T02930164  RH  046%=      5-min Rain = 0
KSE2 141942Z 23005KT 29/16 A2998 RMK A01 T02900164  RH  046%=      5-min Rain = 0
KSE2 141943Z 26005KT 29/16 A2998 RMK A01 T02870164  RH  047%=      5-min Rain = 0
KSE2 141944Z 27006KT 29/16 A2998 RMK A01 T02880164  RH  047%=      5-min Rain = 0
KSE2 141945Z 29005KT 29/17 A2998 RMK A01 T02900165  RH  047%=      5-min Rain = 0
KSE2 141946Z 25003KT 29/17 A2998 RMK A01 T02910165  RH  047%=      5-min Rain = 0
KSE2 141947Z 20006KT 29/17 A2998 RMK A01 T02920166  RH  047%=      5-min Rain = 0
KSE2 141948Z 19006KT 29/17 A2998 RMK A01 T02930166  RH  046%=      5-min Rain = 0
KSE2 141949Z 19004KT 29/17 A2998 RMK A01 T02930166  RH  046%=      5-min Rain = 0
KSE2 141950Z 15007KT 29/17 A2998 RMK A01 T02930166  RH  046%=      5-min Rain = 0
KSE2 141951Z 17005KT 29/17 A2998 RMK A01 T02920166  RH  047%=      5-min Rain = 0
KSE2 141952Z 17004KT 29/17 A2998 RMK A01 T02890166  RH  047%=      5-min Rain = 0
KSE2 141953Z 20006KT 29/17 A2997 RMK A01 T02900167  RH  047%=      5-min Rain = 0
KSE2 141954Z 19005KT 29/17 A2997 RMK A01 T02920167  RH  047%=      5-min Rain = 0
KSE2 141955Z 21007KT 29/17 A2997 RMK A01 T02930167  RH  047%=      5-min Rain = 0
KSE2 141956Z 16005KT 29/17 A2997 RMK A01 T02930167  RH  047%=      5-min Rain = 0
KSE2 141957Z 21005KT 30/17 A2997 RMK A01 T02950167  RH  046%=      5-min Rain = 0
KSE2 141958Z 26006KT 30/16 A2997 RMK A01 T02970163  RH  045%=      5-min Rain = 0
KSE2 141959Z 27007KT 30/16 A2997 RMK A01 T02950162  RH  045%=      5-min Rain = 0
KSE2 142000Z 26007KT 29/16 A2997 RMK A01 T02930162  RH  045%=      5-min Rain = 0
KSE2 142001Z 23005KT 29/16 A2997 RMK A01 T02900161  RH  046%=      5-min Rain = 0
KSE2 142002Z 25003KT 29/16 A2997 RMK A01 T02890161  RH  046%=      5-min Rain = 0
KSE2 142003Z 26002KT 29/16 A2997 RMK A01 T02890161  RH  046%=      5-min Rain = 0
KSE2 142004Z 28002KT 29/16 A2997 RMK A01 T02890161  RH  046%=      5-min Rain = 0
KSE2 142005Z 28003KT 29/16 A2997 RMK A01 T02900161  RH  046%=      5-min Rain = 0
KSE2 142006Z 31002KT 29/16 A2997 RMK A01 T02900161  RH  046%=      5-min Rain = 0
KSE2 142007Z 25003KT 29/16 A2997 RMK A01 T02890161  RH  046%=      5-min Rain = 0
KSE2 142008Z 19004KT 29/16 A2997 RMK A01 T02880162  RH  046%=      5-min Rain = 0
KSE2 142009Z 15003KT 29/16 A2997 RMK A01 T02890161  RH  046%=      5-min Rain = 0
KSE2 142010Z 16003KT 29/16 A2997 RMK A01 T02890160  RH  046%=      5-min Rain = 0
KSE2 142011Z 21005KT 29/16 A2997 RMK A01 T02900161  RH  046%=      5-min Rain = 0
KSE2 142012Z 22004KT 29/16 A2997 RMK A01 T02910160  RH  045%=      5-min Rain = 0
KSE2 142013Z 24002KT 29/16 A2997 RMK A01 T02910160  RH  045%=      5-min Rain = 0
KSE2 142014Z 23001KT 29/16 A2997 RMK A01 T02920160  RH  045%=      5-min Rain = 0
KSE2 142015Z 26003KT 29/16 A2996 RMK A01 T02940159  RH  044%=      5-min Rain = 0
KSE2 142016Z 30001KT 29/16 A2996 RMK A01 T02940159  RH  044%=      5-min Rain = 0
KSE2 142017Z 07001KT 29/16 A2996 RMK A01 T02930159  RH  044%=      5-min Rain = 0
KSE2 142018Z 07002KT 29/16 A2996 RMK A01 T02920159  RH  045%=      5-min Rain = 0
KSE2 142019Z 23005G11KT 29/16 A2996 RMK A01 T02910160  RH  045%=      5-min Rain = 0
KSE2 142020Z 24007KT 29/16 A2996 RMK A01 T02920161  RH  045%=      5-min Rain = 0
KSE2 142021Z 23006KT 29/16 A2996 RMK A01 T02930162  RH  045%=      5-min Rain = 0
KSE2 142022Z 24006KT 30/16 A2996 RMK A01 T02950162  RH  045%=      5-min Rain = 0
KSE2 142023Z 25006KT 30/16 A2996 RMK A01 T02970163  RH  044%=      5-min Rain = 0
KSE2 142024Z 27006KT 30/16 A2996 RMK A01 T02970162  RH  044%=      5-min Rain = 0
KSE2 142025Z 28006KT 30/16 A2996 RMK A01 T02970162  RH  044%=      5-min Rain = 0
KSE2 142026Z 28005KT 30/16 A2996 RMK A01 T02970162  RH  044%=      5-min Rain = 0
KSE2 142027Z 28005KT 30/16 A2996 RMK A01 T02970162  RH  044%=      5-min Rain = 0
KSE2 142028Z 28003KT 30/16 A2996 RMK A01 T02960162  RH  044%=      5-min Rain = 0
KSE2 142029Z 28002KT 30/16 A2996 RMK A01 T02960163  RH  045%=      5-min Rain = 0
KSE2 142030Z 28005KT 30/16 A2996 RMK A01 T02980163  RH  044%=      5-min Rain = 0
KSE2 142031Z 25003KT 30/16 A2996 RMK A01 T02990162  RH  044%=      5-min Rain = 0
KSE2 142032Z 25003KT 30/16 A2996 RMK A01 T02970162  RH  044%=      5-min Rain = 0
KSE2 142033Z 07003KT 30/16 A2996 RMK A01 T02960162  RH  044%=      5-min Rain = 0
KSE2 142034Z 28004KT 30/16 A2996 RMK A01 T02970163  RH  044%=      5-min Rain = 0
KSE2 142035Z 23005KT 30/16 A2996 RMK A01 T03000163  RH  044%=      5-min Rain = 0
KSE2 142036Z 19004KT 30/16 A2996 RMK A01 T03030163  RH  043%=      5-min Rain = 0
KSE2 142037Z 20006KT 30/16 A2996 RMK A01 T03040163  RH  043%=      5-min Rain = 0
KSE2 142038Z 23008KT 30/16 A2996 RMK A01 T03030162  RH  042%=      5-min Rain = 0
KSE2 142039Z 23008KT 30/16 A2996 RMK A01 T03010160  RH  043%=      5-min Rain = 0
KSE2 142040Z 24008KT 30/16 A2996 RMK A01 T02990160  RH  043%=      5-min Rain = 0
KSE2 142041Z 24006KT 30/16 A2996 RMK A01 T02980158  RH  043%=      5-min Rain = 0
KSE2 142042Z 22005KT 30/16 A2996 RMK A01 T02950158  RH  043%=      5-min Rain = 0
KSE2 142043Z 22004KT 29/16 A2996 RMK A01 T02940158  RH  044%=      5-min Rain = 0
KSE2 142044Z 21004KT 29/16 A2996 RMK A01 T02940159  RH  044%=      5-min Rain = 0
KSE2 142045Z 19006KT 29/16 A2996 RMK A01 T02940159  RH  044%=      5-min Rain = 0
KSE2 142046Z 21006KT 29/16 A2996 RMK A01 T02930158  RH  044%=      5-min Rain = 0
KSE2 142047Z 23005KT 29/16 A2996 RMK A01 T02920158  RH  044%=      5-min Rain = 0
KSE2 142048Z 25003KT 29/16 A2996 RMK A01 T02910157  RH  044%=      5-min Rain = 0
KSE2 142049Z 30002KT 29/16 A2996 RMK A01 T02900157  RH  044%=      5-min Rain = 0
KSE2 142050Z 33002KT 29/16 A2996 RMK A01 T02900158  RH  045%=      5-min Rain = 0
KSE2 142051Z 28003KT 29/16 A2996 RMK A01 T02900159  RH  045%=      5-min Rain = 0
KSE2 142052Z 26004KT 29/16 A2996 RMK A01 T02900159  RH  045%=      5-min Rain = 0
KSE2 142053Z 21004KT 29/16 A2996 RMK A01 T02910159  RH  045%=      5-min Rain = 0
KSE2 142054Z 20004KT 29/16 A2996 RMK A01 T02940161  RH  045%=      5-min Rain = 0
KSE2 142055Z 19004KT 30/16 A2996 RMK A01 T02960162  RH  044%=      5-min Rain = 0
KSE2 142056Z 19004KT 30/16 A2996 RMK A01 T02980161  RH  043%=      5-min Rain = 0
KSE2 142057Z 21006KT 30/16 A2996 RMK A01 T02980159  RH  043%=      5-min Rain = 0
KSE2 142058Z 21006KT 30/15 A2996 RMK A01 T02980154  RH  042%=      5-min Rain = 0
KSE2 142059Z 21008KT 30/15 A2996 RMK A01 T02980154  RH  042%=      5-min Rain = 0
KSE2 142100Z 21007KT 30/15 A2996 RMK A01 T02960153  RH  042%=      5-min Rain = 0
KSE2 142101Z 21005KT 29/15 A2996 RMK A01 T02940153  RH  042%=      5-min Rain = 0
KSE2 142102Z 23006KT 29/15 A2996 RMK A01 T02940153  RH  042%=      5-min Rain = 0
KSE2 142103Z 25007KT 30/15 A2996 RMK A01 T02950153  RH  042%=      5-min Rain = 0
KSE2 142104Z 22005KT 30/15 A2996 RMK A01 T02960153  RH  042%=      5-min Rain = 0
KSE2 142105Z 22006KT 30/15 A2996 RMK A01 T02960154  RH  042%=      5-min Rain = 0
KSE2 142106Z 21005KT 30/15 A2996 RMK A01 T02970154  RH  042%=      5-min Rain = 0
KSE2 142107Z 20004KT 30/15 A2996 RMK A01 T02980154  RH  042%=      5-min Rain = 0
KSE2 142108Z 19006KT 30/15 A2996 RMK A01 T02980154  RH  042%=      5-min Rain = 0
KSE2 142109Z 20005KT 30/15 A2996 RMK A01 T02970154  RH  042%=      5-min Rain = 0
KSE2 142110Z 20004KT 30/15 A2996 RMK A01 T02960154  RH  042%=      5-min Rain = 0
KSE2 142111Z 20005KT 30/15 A2996 RMK A01 T02960154  RH  042%=      5-min Rain = 0
KSE2 142112Z 21005KT 30/15 A2996 RMK A01 T02960153  RH  042%=      5-min Rain = 0
KSE2 142113Z 20003KT 30/15 A2996 RMK A01 T02950154  RH  042%=      5-min Rain = 0
KSE2 142114Z 21005KT 30/16 A2996 RMK A01 T02970155  RH  042%=      5-min Rain = 0
KSE2 142115Z 19004KT 30/15 A2996 RMK A01 T02980154  RH  042%=      5-min Rain = 0
KSE2 142116Z 18004KT 30/15 A2996 RMK A01 T02980154  RH  042%=      5-min Rain = 0
KSE2 142117Z 17004KT 30/15 A2996 RMK A01 T02980153  RH  042%=      5-min Rain = 0
KSE2 142118Z 19004KT 30/16 A2996 RMK A01 T02980155  RH  042%=      5-min Rain = 0
KSE2 142119Z 19006KT 30/15 A2996 RMK A01 T02990154  RH  042%=      5-min Rain = 0
KSE2 142120Z 18005KT 30/15 A2996 RMK A01 T02980154  RH  042%=      5-min Rain = 0
KSE2 142121Z 15004KT 30/15 A2996 RMK A01 T02970154  RH  042%=      5-min Rain = 0
KSE2 142122Z 14003KT 30/15 A2996 RMK A01 T02950153  RH  042%=      5-min Rain = 0
KSE2 142123Z 19004KT 29/16 A2996 RMK A01 T02940155  RH  043%=      5-min Rain = 0
KSE2 142124Z 19005KT 30/16 A2996 RMK A01 T02950155  RH  043%=      5-min Rain = 0
KSE2 142125Z 16003KT 29/16 A2996 RMK A01 T02940155  RH  043%=      5-min Rain = 0
KSE2 142126Z 14004KT 29/16 A2996 RMK A01 T02930155  RH  043%=      5-min Rain = 0
KSE2 142127Z 13004KT 29/15 A2996 RMK A01 T02940154  RH  043%=      5-min Rain = 0
KSE2 142128Z 13004KT 29/16 A2996 RMK A01 T02930155  RH  043%=      5-min Rain = 0
KSE2 142129Z 16003KT 29/15 A2996 RMK A01 T02920154  RH  043%=      5-min Rain = 0
KSE2 142130Z 20003KT 29/15 A2996 RMK A01 T02910154  RH  044%=      5-min Rain = 0
KSE2 142131Z 19002KT 29/16 A2996 RMK A01 T02910155  RH  044%=      5-min Rain = 0
KSE2 142132Z 14003KT 29/16 A2996 RMK A01 T02920155  RH  043%=      5-min Rain = 0
KSE2 142133Z 14003KT 29/16 A2996 RMK A01 T02930155  RH  043%=      5-min Rain = 0
KSE2 142134Z 17002KT 29/16 A2996 RMK A01 T02940156  RH  043%=      5-min Rain = 0
KSE2 142135Z 21003KT 30/16 A2996 RMK A01 T02950156  RH  043%=      5-min Rain = 0
KSE2 142136Z 22003KT 30/16 A2996 RMK A01 T02950156  RH  043%=      5-min Rain = 0
KSE2 142137Z 23001KT 29/16 A2996 RMK A01 T02940156  RH  043%=      5-min Rain = 0
KSE2 142138Z 14003KT 29/16 A2996 RMK A01 T02940157  RH  043%=      5-min Rain = 0
KSE2 142139Z 11002KT 30/16 A2996 RMK A01 T02950156  RH  043%=      5-min Rain = 0
KSE2 142140Z 14001KT 30/16 A2996 RMK A01 T02950156  RH  043%=      5-min Rain = 0
KSE2 142141Z 19004KT 29/16 A2996 RMK A01 T02940156  RH  043%=      5-min Rain = 0
KSE2 142142Z 21004KT 30/16 A2996 RMK A01 T02950157  RH  043%=      5-min Rain = 0
KSE2 142143Z 21003KT 29/16 A2996 RMK A01 T02940157  RH  043%=      5-min Rain = 0
KSE2 142144Z 22004KT 30/16 A2996 RMK A01 T02950156  RH  043%=      5-min Rain = 0
KSE2 142145Z 22003KT 29/16 A2996 RMK A01 T02940155  RH  043%=      5-min Rain = 0
KSE2 142146Z 23002KT 29/16 A2996 RMK A01 T02920155  RH  043%=      5-min Rain = 0
KSE2 142147Z 27001KT 29/16 A2996 RMK A01 T02920155  RH  044%=      5-min Rain = 0
KSE2 142148Z 25003KT 29/16 A2996 RMK A01 T02920155  RH  043%=      5-min Rain = 0
KSE2 142149Z 25004KT 29/16 A2996 RMK A01 T02930155  RH  043%=      5-min Rain = 0
KSE2 142150Z 26005KT 29/16 A2996 RMK A01 T02940156  RH  043%=      5-min Rain = 0
KSE2 142151Z 22006KT 30/16 A2996 RMK A01 T02950156  RH  043%=      5-min Rain = 0
KSE2 142152Z 20003KT 30/16 A2996 RMK A01 T02950157  RH  043%=      5-min Rain = 0
KSE2 142153Z 17003KT 30/16 A2996 RMK A01 T02960157  RH  043%=      5-min Rain = 0
KSE2 142154Z 18004KT 30/16 A2996 RMK A01 T02970157  RH  043%=      5-min Rain = 0
KSE2 142155Z 22005KT 30/16 A2996 RMK A01 T02970157  RH  043%=      5-min Rain = 0
KSE2 142156Z 24005KT 30/16 A2996 RMK A01 T02970155  RH  042%=      5-min Rain = 0
KSE2 142157Z 24006KT 30/16 A2996 RMK A01 T02970155  RH  042%=      5-min Rain = 0
KSE2 142158Z 23006KT 30/16 A2996 RMK A01 T02950155  RH  043%=      5-min Rain = 0
KSE2 142159Z 24006KT 29/16 A2996 RMK A01 T02930155  RH  043%=      5-min Rain = 0
KSE2 142200Z 23006KT 29/16 A2996 RMK A01 T02920156  RH  044%=      5-min Rain = 0
KSE2 142201Z 23006KT 29/16 A2996 RMK A01 T02920156  RH  044%=      5-min Rain = 0
KSE2 142202Z 24005KT 29/16 A2996 RMK A01 T02920156  RH  044%=      5-min Rain = 0
KSE2 142203Z 25004KT 29/16 A2996 RMK A01 T02920156  RH  044%=      5-min Rain = 0
KSE2 142204Z 27002KT 29/16 A2996 RMK A01 T02910156  RH  044%=      5-min Rain = 0
KSE2 142205Z 26005KT 29/16 A2996 RMK A01 T02900156  RH  044%=      5-min Rain = 0
KSE2 142206Z 25004KT 29/16 A2996 RMK A01 T02900156  RH  044%=      5-min Rain = 0
KSE2 142207Z 25002KT 29/16 A2996 RMK A01 T02900156  RH  044%=      5-min Rain = 0
KSE2 142208Z 25001KT 29/16 A2995 RMK A01 T02900156  RH  044%=      5-min Rain = 0
KSE2 142209Z 24004KT 29/16 A2995 RMK A01 T02900156  RH  044%=      5-min Rain = 0
KSE2 142210Z 24003KT 29/16 A2995 RMK A01 T02910156  RH  044%=      5-min Rain = 0
KSE2 142211Z 26003KT 29/16 A2995 RMK A01 T02910156  RH  044%=      5-min Rain = 0
KSE2 142212Z 25003KT 29/16 A2995 RMK A01 T02910157  RH  044%=      5-min Rain = 0
KSE2 142213Z 21003KT 29/16 A2995 RMK A01 T02910157  RH  044%=      5-min Rain = 0
KSE2 142214Z 21004KT 29/15 A2995 RMK A01 T02920154  RH  043%=      5-min Rain = 0
KSE2 142215Z 23002KT 29/16 A2995 RMK A01 T02920156  RH  044%=      5-min Rain = 0
KSE2 142216Z 25004KT 29/16 A2995 RMK A01 T02920156  RH  044%=      5-min Rain = 0
KSE2 142217Z 25004KT 29/16 A2995 RMK A01 T02920157  RH  044%=      5-min Rain = 0
KSE2 142218Z 24003KT 29/16 A2995 RMK A01 T02920157  RH  044%=      5-min Rain = 0
KSE2 142219Z 22004KT 29/16 A2995 RMK A01 T02910157  RH  044%=      5-min Rain = 0
KSE2 142220Z 23004KT 29/16 A2995 RMK A01 T02910157  RH  044%=      5-min Rain = 0
KSE2 142221Z 23003KT 29/16 A2995 RMK A01 T02900156  RH  044%=      5-min Rain = 0
KSE2 142222Z 24006KT 29/16 A2995 RMK A01 T02900156  RH  044%=      5-min Rain = 0
KSE2 142223Z 23004KT 29/16 A2995 RMK A01 T02890155  RH  044%=      5-min Rain = 0
KSE2 142224Z 25005KT 29/16 A2996 RMK A01 T02890155  RH  044%=      5-min Rain = 0
KSE2 142225Z 26003KT 29/16 A2995 RMK A01 T02890155  RH  044%=      5-min Rain = 0
KSE2 142226Z 27003KT 29/16 A2995 RMK A01 T02890155  RH  044%=      5-min Rain = 0
KSE2 142227Z 24004KT 29/16 A2995 RMK A01 T02890155  RH  044%=      5-min Rain = 0
KSE2 142228Z 22006KT 29/15 A2996 RMK A01 T02890154  RH  044%=      5-min Rain = 0
KSE2 142229Z 23005KT 29/15 A2996 RMK A01 T02900154  RH  044%=      5-min Rain = 0
KSE2 142230Z 23006KT 29/16 A2996 RMK A01 T02900155  RH  044%=      5-min Rain = 0
KSE2 142231Z 23005KT 29/15 A2996 RMK A01 T02890154  RH  044%=      5-min Rain = 0
KSE2 142232Z 22005KT 29/15 A2996 RMK A01 T02890154  RH  044%=      5-min Rain = 0
KSE2 142233Z 22005KT 29/15 A2996 RMK A01 T02890154  RH  044%=      5-min Rain = 0
KSE2 142234Z 22006KT 29/15 A2996 RMK A01 T02890154  RH  044%=      5-min Rain = 0
KSE2 142235Z 22005KT 29/15 A2996 RMK A01 T02890154  RH  044%=      5-min Rain = 0
KSE2 142236Z 23004KT 29/15 A2996 RMK A01 T02890154  RH  044%=      5-min Rain = 0
KSE2 142237Z 23003KT 29/15 A2996 RMK A01 T02900154  RH  044%=      5-min Rain = 0
KSE2 142238Z 24003KT 29/15 A2996 RMK A01 T02900154  RH  044%=      5-min Rain = 0
KSE2 142239Z 23004KT 29/15 A2996 RMK A01 T02900154  RH  044%=      5-min Rain = 0
KSE2 142240Z 23003KT 29/15 A2996 RMK A01 T02900154  RH  044%=      5-min Rain = 0
KSE2 142241Z 25003KT 29/15 A2996 RMK A01 T02900154  RH  044%=      5-min Rain = 0
KSE2 142242Z 25004KT 29/16 A2996 RMK A01 T02900155  RH  044%=      5-min Rain = 0
KSE2 142243Z 25005KT 29/16 A2996 RMK A01 T02900155  RH  044%=      5-min Rain = 0
KSE2 142244Z 24003KT 29/16 A2996 RMK A01 T02900155  RH  044%=      5-min Rain = 0
KSE2 142245Z 23002KT 29/16 A2996 RMK A01 T02900155  RH  044%=      5-min Rain = 0
KSE2 142246Z 22002KT 29/16 A2996 RMK A01 T02900155  RH  044%=      5-min Rain = 0
KSE2 142247Z 22002KT 29/16 A2996 RMK A01 T02900155  RH  044%=      5-min Rain = 0
KSE2 142248Z 23002KT 29/16 A2996 RMK A01 T02900155  RH  044%=      5-min Rain = 0
KSE2 142249Z 23002KT 29/16 A2996 RMK A01 T02900155  RH  044%=      5-min Rain = 0
KSE2 142250Z 20001KT 29/16 A2996 RMK A01 T02900155  RH  044%=      5-min Rain = 0
KSE2 142251Z 21001KT 29/16 A2996 RMK A01 T02910156  RH  044%=      5-min Rain = 0
KSE2 142252Z 21001KT 29/16 A2996 RMK A01 T02910155  RH  044%=      5-min Rain = 0
KSE2 142253Z 16001KT 29/16 A2996 RMK A01 T02910155  RH  044%=      5-min Rain = 0
KSE2 142254Z 18002KT 29/16 A2996 RMK A01 T02910155  RH  044%=      5-min Rain = 0
KSE2 142255Z 18002KT 29/16 A2995 RMK A01 T02910155  RH  044%=      5-min Rain = 0
KSE2 142256Z 16002KT 29/16 A2995 RMK A01 T02900156  RH  044%=      5-min Rain = 0
KSE2 142257Z 17002KT 29/16 A2996 RMK A01 T02900156  RH  044%=      5-min Rain = 0
KSE2 142258Z 19002KT 29/16 A2996 RMK A01 T02900155  RH  044%=      5-min Rain = 0
KSE2 142259Z 19002KT 29/16 A2996 RMK A01 T02890155  RH  044%=      5-min Rain = 0
KSE2 142300Z 20002KT 29/15 A2996 RMK A01 T02890154  RH  044%=      5-min Rain = 0
KSE2 142301Z 18001KT 29/16 A2996 RMK A01 T02880155  RH  044%=      5-min Rain = 0
KSE2 142302Z 16001KT 29/16 A2996 RMK A01 T02880155  RH  044%=      5-min Rain = 0
KSE2 142303Z 16001KT 29/15 A2996 RMK A01 T02880154  RH  044%=      5-min Rain = 0
KSE2 142304Z 18002KT 29/15 A2996 RMK A01 T02880154  RH  044%=      5-min Rain = 0
KSE2 142305Z 20003KT 29/16 A2996 RMK A01 T02880155  RH  044%=      5-min Rain = 0
KSE2 142306Z 19003KT 29/15 A2996 RMK A01 T02880154  RH  044%=      5-min Rain = 0
KSE2 142307Z 20003KT 29/16 A2996 RMK A01 T02880155  RH  044%=      5-min Rain = 0
KSE2 142308Z 21002KT 29/16 A2996 RMK A01 T02880155  RH  044%=      5-min Rain = 0
KSE2 142309Z 21003KT 29/16 A2996 RMK A01 T02880155  RH  044%=      5-min Rain = 0
KSE2 142310Z 21004KT 29/16 A2996 RMK A01 T02880155  RH  044%=      5-min Rain = 0
KSE2 142311Z 20003KT 29/16 A2996 RMK A01 T02880155  RH  044%=      5-min Rain = 0
KSE2 142312Z 19004KT 29/16 A2996 RMK A01 T02880156  RH  045%=      5-min Rain = 0
KSE2 142313Z 19005KT 29/16 A2996 RMK A01 T02880156  RH  045%=      5-min Rain = 0
KSE2 142314Z 18004KT 29/16 A2996 RMK A01 T02880156  RH  045%=      5-min Rain = 0
KSE2 142315Z 16003KT 29/16 A2996 RMK A01 T02880156  RH  045%=      5-min Rain = 0
KSE2 142316Z 15004KT 29/16 A2996 RMK A01 T02880157  RH  045%=      5-min Rain = 0
KSE2 142317Z 17003KT 29/16 A2996 RMK A01 T02880156  RH  045%=      5-min Rain = 0
KSE2 142318Z 18004KT 29/16 A2996 RMK A01 T02880156  RH  045%=      5-min Rain = 0
KSE2 142319Z 19004KT 29/16 A2996 RMK A01 T02870156  RH  045%=      5-min Rain = 0
KSE2 142320Z 19004KT 29/16 A2996 RMK A01 T02870156  RH  045%=      5-min Rain = 0
KSE2 142321Z 17003KT 29/16 A2996 RMK A01 T02870157  RH  045%=      5-min Rain = 0
KSE2 142322Z 18004KT 29/16 A2996 RMK A01 T02870159  RH  046%=      5-min Rain = 0
KSE2 142323Z 18007KT 29/17 A2996 RMK A01 T02870165  RH  048%=      5-min Rain = 0
KSE2 142324Z 18006KT 29/17 A2996 RMK A01 T02860169  RH  049%=      5-min Rain = 0
KSE2 142325Z 19007KT 29/17 A2996 RMK A01 T02850171  RH  050%=      5-min Rain = 0
KSE2 142326Z 17007KT 28/17 A2996 RMK A01 T02840172  RH  051%=      5-min Rain = 0
KSE2 142327Z 17007KT 28/17 A2996 RMK A01 T02830173  RH  051%=      5-min Rain = 0
KSE2 142328Z 17005KT 28/17 A2996 RMK A01 T02820173  RH  052%=      5-min Rain = 0
KSE2 142329Z 16005KT 28/17 A2996 RMK A01 T02810173  RH  052%=      5-min Rain = 0
KSE2 142330Z 18005KT 28/17 A2997 RMK A01 T02810173  RH  052%=      5-min Rain = 0
KSE2 142331Z 18006KT 28/17 A2997 RMK A01 T02810173  RH  052%=      5-min Rain = 0
KSE2 142332Z 18005KT 28/17 A2997 RMK A01 T02800173  RH  052%=      5-min Rain = 0
KSE2 142333Z 18004KT 28/17 A2997 RMK A01 T02800173  RH  052%=      5-min Rain = 0
KSE2 142334Z 18007KT 28/17 A2997 RMK A01 T02800173  RH  052%=      5-min Rain = 0
KSE2 142335Z 20006KT 28/17 A2997 RMK A01 T02790172  RH  052%=      5-min Rain = 0
KSE2 142336Z 18005KT 28/17 A2997 RMK A01 T02790172  RH  052%=      5-min Rain = 0
KSE2 142337Z 18007KT 28/17 A2997 RMK A01 T02790172  RH  052%=      5-min Rain = 0
KSE2 142338Z 18007KT 28/17 A2997 RMK A01 T02790173  RH  053%=      5-min Rain = 0
KSE2 142339Z 19006KT 28/17 A2997 RMK A01 T02780173  RH  053%=      5-min Rain = 0
KSE2 142340Z 18007KT 28/17 A2997 RMK A01 T02770173  RH  053%=      5-min Rain = 0
KSE2 142341Z 18007KT 28/17 A2997 RMK A01 T02770173  RH  053%=      5-min Rain = 0
KSE2 142342Z 17006KT 28/17 A2997 RMK A01 T02770173  RH  053%=      5-min Rain = 0
KSE2 142343Z 18006KT 28/17 A2997 RMK A01 T02760173  RH  054%=      5-min Rain = 0
KSE2 142344Z 18006KT 28/17 A2997 RMK A01 T02760173  RH  054%=      5-min Rain = 0
KSE2 142345Z 18007KT 28/17 A2997 RMK A01 T02750174  RH  054%=      5-min Rain = 0
KSE2 142346Z 17006KT 28/17 A2997 RMK A01 T02750174  RH  054%=      5-min Rain = 0
KSE2 142347Z 18006KT 28/17 A2997 RMK A01 T02750174  RH  054%=      5-min Rain = 0
KSE2 142348Z 17005KT 27/17 A2997 RMK A01 T02740174  RH  054%=      5-min Rain = 0
KSE2 142349Z 18006KT 27/17 A2997 RMK A01 T02740173  RH  054%=      5-min Rain = 0
KSE2 142350Z 17007KT 27/17 A2997 RMK A01 T02740174  RH  054%=      5-min Rain = 0
KSE2 142351Z 18007KT 27/17 A2997 RMK A01 T02740174  RH  054%=      5-min Rain = 0
KSE2 142352Z 18006KT 27/17 A2997 RMK A01 T02730173  RH  054%=      5-min Rain = 0
KSE2 142353Z 17005KT 27/17 A2997 RMK A01 T02730174  RH  054%=      5-min Rain = 0
KSE2 142354Z 18007KT 27/17 A2997 RMK A01 T02730174  RH  055%=      5-min Rain = 0
KSE2 142355Z 18006KT 27/17 A2997 RMK A01 T02730174  RH  055%=      5-min Rain = 0
KSE2 142356Z 17005KT 27/17 A2997 RMK A01 T02730174  RH  055%=      5-min Rain = 0
KSE2 142357Z 16005KT 27/17 A2997 RMK A01 T02720174  RH  055%=      5-min Rain = 0
KSE2 142358Z 17007KT 27/17 A2997 RMK A01 T02720174  RH  055%=      5-min Rain = 0
KSE2 142359Z 16007KT 27/17 A2997 RMK A01 T02720174  RH  055%=      5-min Rain = 0
KSE2 150000Z 16007KT 27/17 A2997 RMK A01 T02720174  RH  055%=      5-min Rain = 0
KSE2 150001Z 16006KT 27/17 A2997 RMK A01 T02720174  RH  055%=      5-min Rain = 0
KSE2 150002Z 17005KT 27/17 A2997 RMK A01 T02710174  RH  055%=      5-min Rain = 0
KSE2 150003Z 17005KT 27/17 A2997 RMK A01 T02710174  RH  055%=      5-min Rain = 0
KSE2 150004Z 17004KT 27/17 A2997 RMK A01 T02710174  RH  055%=      5-min Rain = 0
KSE2 150005Z 16004KT 27/17 A2997 RMK A01 T02710174  RH  055%=      5-min Rain = 0
KSE2 150006Z 17006KT 27/17 A2997 RMK A01 T02700174  RH  056%=      5-min Rain = 0
KSE2 150007Z 16006KT 27/17 A2997 RMK A01 T02700174  RH  056%=      5-min Rain = 0
KSE2 150008Z 16004KT 27/17 A2997 RMK A01 T02700174  RH  056%=      5-min Rain = 0
KSE2 150009Z 15005KT 27/17 A2997 RMK A01 T02700174  RH  056%=      5-min Rain = 0
KSE2 150010Z 15005KT 27/17 A2997 RMK A01 T02690174  RH  056%=      5-min Rain = 0
KSE2 150011Z 15005KT 27/17 A2997 RMK A01 T02690174  RH  056%=      5-min Rain = 0
KSE2 150012Z 16004KT 27/17 A2997 RMK A01 T02680174  RH  056%=      5-min Rain = 0
KSE2 150013Z 15005KT 27/17 A2997 RMK A01 T02680174  RH  056%=      5-min Rain = 0
KSE2 150014Z 15004KT 27/17 A2997 RMK A01 T02680174  RH  056%=      5-min Rain = 0
KSE2 150015Z 15005KT 27/17 A2997 RMK A01 T02670174  RH  057%=      5-min Rain = 0
KSE2 150016Z 15003KT 27/17 A2997 RMK A01 T02670174  RH  057%=      5-min Rain = 0
KSE2 150017Z 15004KT 27/17 A2997 RMK A01 T02670174  RH  057%=      5-min Rain = 0
KSE2 150018Z 15004KT 27/17 A2997 RMK A01 T02660174  RH  057%=      5-min Rain = 0
KSE2 150019Z 14004KT 27/17 A2997 RMK A01 T02660174  RH  057%=      5-min Rain = 0
KSE2 150020Z 14004KT 27/17 A2997 RMK A01 T02660174  RH  057%=      5-min Rain = 0
KSE2 150021Z 15004KT 27/18 A2997 RMK A01 T02660175  RH  057%=      5-min Rain = 0
KSE2 150022Z 14004KT 27/17 A2997 RMK A01 T02650174  RH  057%=      5-min Rain = 0
KSE2 150023Z 15005KT 27/17 A2997 RMK A01 T02650174  RH  058%=      5-min Rain = 0
KSE2 150024Z 15005KT 27/18 A2998 RMK A01 T02650175  RH  058%=      5-min Rain = 0
KSE2 150025Z 16004KT 26/18 A2998 RMK A01 T02640175  RH  058%=      5-min Rain = 0
KSE2 150026Z 15004KT 26/17 A2998 RMK A01 T02640174  RH  058%=      5-min Rain = 0
KSE2 150027Z 16004KT 26/18 A2998 RMK A01 T02640175  RH  058%=      5-min Rain = 0
KSE2 150028Z 16003KT 26/18 A2998 RMK A01 T02640175  RH  058%=      5-min Rain = 0
KSE2 150029Z 16003KT 26/18 A2998 RMK A01 T02630175  RH  058%=      5-min Rain = 0
KSE2 150030Z 16003KT 26/18 A2998 RMK A01 T02630175  RH  058%=      5-min Rain = 0
KSE2 150031Z 17003KT 26/18 A2998 RMK A01 T02630175  RH  058%=      5-min Rain = 0
KSE2 150032Z 16003KT 26/18 A2998 RMK A01 T02620175  RH  058%=      5-min Rain = 0
KSE2 150033Z 17003KT 26/18 A2998 RMK A01 T02630175  RH  059%=      5-min Rain = 0
KSE2 150034Z 16004KT 26/18 A2998 RMK A01 T02620175  RH  059%=      5-min Rain = 0
KSE2 150035Z 16004KT 26/18 A2998 RMK A01 T02620175  RH  059%=      5-min Rain = 0
KSE2 150036Z 15004KT 26/18 A2998 RMK A01 T02620175  RH  059%=      5-min Rain = 0
KSE2 150037Z 16004KT 26/18 A2998 RMK A01 T02610175  RH  059%=      5-min Rain = 0
KSE2 150038Z 16004KT 26/18 A2998 RMK A01 T02610175  RH  059%=      5-min Rain = 0
KSE2 150039Z 15005KT 26/18 A2998 RMK A01 T02610175  RH  059%=      5-min Rain = 0
KSE2 150040Z 15005KT 26/18 A2998 RMK A01 T02610175  RH  059%=      5-min Rain = 0
KSE2 150041Z 15004KT 26/18 A2998 RMK A01 T02600175  RH  059%=      5-min Rain = 0
KSE2 150042Z 16005KT 26/18 A2998 RMK A01 T02610175  RH  059%=      5-min Rain = 0
KSE2 150043Z 16006KT 26/17 A2998 RMK A01 T02600174  RH  059%=      5-min Rain = 0
KSE2 150044Z 16005KT 26/17 A2999 RMK A01 T02600174  RH  059%=      5-min Rain = 0
KSE2 150045Z 15006KT 26/17 A2998 RMK A01 T02600174  RH  059%=      5-min Rain = 0
KSE2 150046Z 15006KT 26/17 A2998 RMK A01 T02610174  RH  059%=      5-min Rain = 0
KSE2 150047Z 16006KT 26/17 A2998 RMK A01 T02610174  RH  059%=      5-min Rain = 0
KSE2 150048Z 15005KT 26/17 A2998 RMK A01 T02610174  RH  059%=      5-min Rain = 0
KSE2 150049Z 15006KT 26/17 A2998 RMK A01 T02600174  RH  059%=      5-min Rain = 0
KSE2 150050Z 15006KT 26/18 A2998 RMK A01 T02610175  RH  059%=      5-min Rain = 0
KSE2 150051Z 14004KT 26/18 A2998 RMK A01 T02610175  RH  059%=      5-min Rain = 0
KSE2 150052Z 14003KT 26/17 A2998 RMK A01 T02600174  RH  059%=      5-min Rain = 0
KSE2 150053Z 14005KT 26/17 A2998 RMK A01 T02590174  RH  059%=      5-min Rain = 0
KSE2 150054Z 14005KT 26/17 A2998 RMK A01 T02590174  RH  059%=      5-min Rain = 0
KSE2 150055Z 15004KT 26/17 A2998 RMK A01 T02590174  RH  060%=      5-min Rain = 0
KSE2 150056Z 15004KT 26/17 A2998 RMK A01 T02580174  RH  060%=      5-min Rain = 0
KSE2 150057Z 15004KT 26/17 A2998 RMK A01 T02580174  RH  060%=      5-min Rain = 0
KSE2 150058Z 14004KT 26/17 A2998 RMK A01 T02580174  RH  060%=      5-min Rain = 0
KSE2 150059Z 15004KT 26/17 A2998 RMK A01 T02580174  RH  060%=      5-min Rain = 0
KSE2 150100Z 15004KT 26/17 A2998 RMK A01 T02570174  RH  060%=      5-min Rain = 0
KSE2 150101Z 15005KT 26/17 A2998 RMK A01 T02570174  RH  060%=      5-min Rain = 0
KSE2 150102Z 15005KT 26/17 A2998 RMK A01 T02570174  RH  060%=      5-min Rain = 0
KSE2 150103Z 14005KT 26/17 A2998 RMK A01 T02570174  RH  060%=      5-min Rain = 0
KSE2 150104Z 15004KT 26/17 A2998 RMK A01 T02560174  RH  060%=      5-min Rain = 0
KSE2 150105Z 15005KT 26/17 A2998 RMK A01 T02560174  RH  060%=      5-min Rain = 0
KSE2 150106Z 15005KT 26/17 A2998 RMK A01 T02560174  RH  061%=      5-min Rain = 0
KSE2 150107Z 15004KT 26/17 A2998 RMK A01 T02560174  RH  061%=      5-min Rain = 0
KSE2 150108Z 15005KT 26/17 A2999 RMK A01 T02560174  RH  061%=      5-min Rain = 0
KSE2 150109Z 16004KT 26/17 A2999 RMK A01 T02550174  RH  061%=      5-min Rain = 0
KSE2 150110Z 16005KT 26/17 A2999 RMK A01 T02550174  RH  061%=      5-min Rain = 0
KSE2 150111Z 16005KT 26/17 A2999 RMK A01 T02550174  RH  061%=      5-min Rain = 0
KSE2 150112Z 16004KT 26/18 A2999 RMK A01 T02550175  RH  061%=      5-min Rain = 0
KSE2 150113Z 16006KT 26/18 A2999 RMK A01 T02550175  RH  061%=      5-min Rain = 0
KSE2 150114Z 16005KT 26/18 A2999 RMK A01 T02550175  RH  061%=      5-min Rain = 0
KSE2 150115Z 16005KT 26/18 A2999 RMK A01 T02550175  RH  061%=      5-min Rain = 0
KSE2 150116Z 17004KT 26/18 A2999 RMK A01 T02550175  RH  061%=      5-min Rain = 0
KSE2 150117Z 16004KT 26/18 A2999 RMK A01 T02550175  RH  061%=      5-min Rain = 0
KSE2 150118Z 17004KT 25/18 A2999 RMK A01 T02540175  RH  061%=      5-min Rain = 0
KSE2 150119Z 17004KT 25/18 A2999 RMK A01 T02540175  RH  061%=      5-min Rain = 0
KSE2 150120Z 17005KT 25/18 A2999 RMK A01 T02540175  RH  061%=      5-min Rain = 0
KSE2 150121Z 17005KT 25/18 A2999 RMK A01 T02540175  RH  062%=      5-min Rain = 0
KSE2 150122Z 16004KT 25/18 A2999 RMK A01 T02540175  RH  062%=      5-min Rain = 0
KSE2 150123Z 15004KT 25/18 A2999 RMK A01 T02540175  RH  062%=      5-min Rain = 0
KSE2 150124Z 16004KT 25/18 A2999 RMK A01 T02540175  RH  062%=      5-min Rain = 0
KSE2 150125Z 15005KT 25/18 A2999 RMK A01 T02540175  RH  062%=      5-min Rain = 0
KSE2 150126Z 15005KT 25/18 A2999 RMK A01 T02530175  RH  062%=      5-min Rain = 0
KSE2 150127Z 15005KT 25/18 A2999 RMK A01 T02530175  RH  062%=      5-min Rain = 0
KSE2 150128Z 15005KT 25/18 A2999 RMK A01 T02530175  RH  062%=      5-min Rain = 0
KSE2 150129Z 15006KT 25/18 A2999 RMK A01 T02530175  RH  062%=      5-min Rain = 0
KSE2 150130Z 14005KT 25/18 A2999 RMK A01 T02520175  RH  062%=      5-min Rain = 0
KSE2 150131Z 14005KT 25/17 A2999 RMK A01 T02520174  RH  062%=      5-min Rain = 0
KSE2 150132Z 14005KT 25/18 A2999 RMK A01 T02530175  RH  062%=      5-min Rain = 0
KSE2 150133Z 14006KT 25/18 A2999 RMK A01 T02520175  RH  062%=      5-min Rain = 0
KSE2 150134Z 14006KT 25/18 A2999 RMK A01 T02520175  RH  062%=      5-min Rain = 0
KSE2 150135Z 14005KT 25/18 A2999 RMK A01 T02530175  RH  062%=      5-min Rain = 0
KSE2 150136Z 14006KT 25/18 A2999 RMK A01 T02520175  RH  062%=      5-min Rain = 0
KSE2 150137Z 14005KT 25/18 A2999 RMK A01 T02520175  RH  062%=      5-min Rain = 0
KSE2 150138Z 14007KT 25/18 A2999 RMK A01 T02520175  RH  062%=      5-min Rain = 0
KSE2 150139Z 14006KT 25/18 A2999 RMK A01 T02520175  RH  062%=      5-min Rain = 0
KSE2 150140Z 14006KT 25/18 A2999 RMK A01 T02520175  RH  062%=      5-min Rain = 0
KSE2 150141Z 14006KT 25/18 A2999 RMK A01 T02520175  RH  062%=      5-min Rain = 0
KSE2 150142Z 14005KT 25/18 A2999 RMK A01 T02520175  RH  062%=      5-min Rain = 0
KSE2 150143Z 14005KT 25/18 A2999 RMK A01 T02520175  RH  062%=      5-min Rain = 0
KSE2 150144Z 15004KT 25/18 A2999 RMK A01 T02520175  RH  062%=      5-min Rain = 0
KSE2 150145Z 15005KT 25/18 A2999 RMK A01 T02520175  RH  062%=      5-min Rain = 0
KSE2 150146Z 16005KT 25/18 A2999 RMK A01 T02510175  RH  063%=      5-min Rain = 0
KSE2 150147Z 16006KT 25/18 A2999 RMK A01 T02510175  RH  063%=      5-min Rain = 0
KSE2 150148Z 15005KT 25/18 A2999 RMK A01 T02510175  RH  063%=      5-min Rain = 0
KSE2 150149Z 16005KT 25/18 A2999 RMK A01 T02510175  RH  063%=      5-min Rain = 0
KSE2 150150Z 16006KT 25/18 A2999 RMK A01 T02510175  RH  063%=      5-min Rain = 0
KSE2 150151Z 16006KT 25/18 A2999 RMK A01 T02510175  RH  063%=      5-min Rain = 0
KSE2 150152Z 17006KT 25/18 A2999 RMK A01 T02510175  RH  063%=      5-min Rain = 0
KSE2 150153Z 17006KT 25/18 A30 RMK A01 T02510175  RH  063%=      5-min Rain = 0
KSE2 150154Z 17006KT 25/18 A30 RMK A01 T02510175  RH  063%=      5-min Rain = 0
KSE2 150155Z 17005KT 25/18 A30 RMK A01 T02510176  RH  063%=      5-min Rain = 0
KSE2 150156Z 16006KT 25/18 A30 RMK A01 T02520176  RH  063%=      5-min Rain = 0
KSE2 150157Z 17005KT 25/18 A30 RMK A01 T02510176  RH  063%=      5-min Rain = 0
KSE2 150158Z 16005KT 25/18 A2999 RMK A01 T02510176  RH  063%=      5-min Rain = 0
KSE2 150159Z 17006KT 25/18 A2999 RMK A01 T02510176  RH  063%=      5-min Rain = 0
KSE2 150200Z 18005KT 25/18 A2999 RMK A01 T02510176  RH  063%=      5-min Rain = 0
KSE2 150201Z 18006KT 25/18 A30 RMK A01 T02510176  RH  063%=      5-min Rain = 0
KSE2 150202Z 18005KT 25/18 A30 RMK A01 T02510176  RH  063%=      5-min Rain = 0
KSE2 150203Z 18006KT 25/18 A30 RMK A01 T02510176  RH  063%=      5-min Rain = 0
KSE2 150204Z 18004KT 25/18 A30 RMK A01 T02510176  RH  063%=      5-min Rain = 0
KSE2 150205Z 18005KT 25/18 A30 RMK A01 T02510176  RH  063%=      5-min Rain = 0
KSE2 150206Z 19005KT 25/18 A30 RMK A01 T02510176  RH  063%=      5-min Rain = 0
KSE2 150207Z 18004KT 25/18 A30 RMK A01 T02500175  RH  063%=      5-min Rain = 0
KSE2 150208Z 18005KT 25/18 A30 RMK A01 T02510176  RH  063%=      5-min Rain = 0
KSE2 150209Z 18005KT 25/18 A30 RMK A01 T02500176  RH  063%=      5-min Rain = 0
KSE2 150210Z 18006KT 25/18 A30 RMK A01 T02500176  RH  063%=      5-min Rain = 0
KSE2 150211Z 18006KT 25/18 A30 RMK A01 T02500176  RH  063%=      5-min Rain = 0
KSE2 150212Z 18006KT 25/18 A30 RMK A01 T02500176  RH  063%=      5-min Rain = 0
KSE2 150213Z 18004KT 25/18 A30 RMK A01 T02500176  RH  063%=      5-min Rain = 0
KSE2 150214Z 18005KT 25/18 A3001 RMK A01 T02490175  RH  064%=      5-min Rain = 0
KSE2 150215Z 18005KT 25/18 A3001 RMK A01 T02500176  RH  064%=      5-min Rain = 0
KSE2 150216Z 18005KT 25/18 A3001 RMK A01 T02490176  RH  064%=      5-min Rain = 0
KSE2 150217Z 17005KT 25/18 A30 RMK A01 T02490176  RH  064%=      5-min Rain = 0
KSE2 150218Z 18005KT 25/18 A30 RMK A01 T02490176  RH  064%=      5-min Rain = 0
KSE2 150219Z 17004KT 25/18 A30 RMK A01 T02490176  RH  064%=      5-min Rain = 0
KSE2 150220Z 17005KT 25/18 A30 RMK A01 T02490176  RH  064%=      5-min Rain = 0
KSE2 150221Z 17004KT 25/18 A30 RMK A01 T02490176  RH  064%=      5-min Rain = 0
KSE2 150222Z 17005KT 25/18 A30 RMK A01 T02480176  RH  064%=      5-min Rain = 0
KSE2 150223Z 17005KT 25/18 A30 RMK A01 T02480176  RH  064%=      5-min Rain = 0
KSE2 150224Z 16007KT 25/18 A30 RMK A01 T02480176  RH  064%=      5-min Rain = 0
KSE2 150225Z 15006KT 25/18 A2999 RMK A01 T02470175  RH  064%=      5-min Rain = 0
KSE2 150226Z 15005KT 25/18 A2999 RMK A01 T02470176  RH  064%=      5-min Rain = 0
KSE2 150227Z 15006KT 25/18 A2999 RMK A01 T02470176  RH  064%=      5-min Rain = 0
KSE2 150228Z 16006KT 25/18 A2999 RMK A01 T02470176  RH  065%=      5-min Rain = 0
KSE2 150229Z 15005KT 25/18 A2999 RMK A01 T02470176  RH  065%=      5-min Rain = 0
KSE2 150230Z 15006KT 25/18 A2999 RMK A01 T02470176  RH  065%=      5-min Rain = 0
KSE2 150231Z 15007KT 25/18 A2999 RMK A01 T02460176  RH  065%=      5-min Rain = 0
KSE2 150232Z 15007KT 25/18 A2999 RMK A01 T02460176  RH  065%=      5-min Rain = 0
KSE2 150233Z 16006KT 25/18 A2999 RMK A01 T02460176  RH  065%=      5-min Rain = 0
KSE2 150234Z 16006KT 25/18 A2999 RMK A01 T02450176  RH  065%=      5-min Rain = 0
KSE2 150235Z 16006KT 25/18 A2999 RMK A01 T02450176  RH  065%=      5-min Rain = 0
KSE2 150236Z 16007KT 25/18 A2999 RMK A01 T02450176  RH  065%=      5-min Rain = 0
KSE2 150237Z 17006KT 25/18 A2999 RMK A01 T02450176  RH  065%=      5-min Rain = 0
KSE2 150238Z 16006KT 25/18 A2999 RMK A01 T02450176  RH  065%=      5-min Rain = 0
KSE2 150239Z 17006KT 24/18 A2999 RMK A01 T02440176  RH  066%=      5-min Rain = 0
KSE2 150240Z 16006KT 24/18 A2999 RMK A01 T02440176  RH  066%=      5-min Rain = 0
KSE2 150241Z 17006KT 25/18 A2999 RMK A01 T02450176  RH  066%=      5-min Rain = 0
KSE2 150242Z 17005KT 24/18 A2999 RMK A01 T02440176  RH  066%=      5-min Rain = 0
KSE2 150243Z 17006KT 24/18 A2999 RMK A01 T02440176  RH  066%=      5-min Rain = 0
KSE2 150244Z 17005KT 24/18 A2999 RMK A01 T02440177  RH  066%=      5-min Rain = 0
KSE2 150245Z 17005KT 24/18 A2999 RMK A01 T02440176  RH  066%=      5-min Rain = 0
KSE2 150246Z 17006KT 24/18 A2999 RMK A01 T02440176  RH  066%=      5-min Rain = 0
KSE2 150247Z 18005KT 24/18 A2999 RMK A01 T02440177  RH  066%=      5-min Rain = 0
KSE2 150248Z 18004KT 24/18 A2999 RMK A01 T02440176  RH  066%=      5-min Rain = 0
KSE2 150249Z 17006KT 24/18 A2999 RMK A01 T02440176  RH  066%=      5-min Rain = 0
KSE2 150250Z 18007KT 24/18 A2999 RMK A01 T02440177  RH  066%=      5-min Rain = 0
KSE2 150251Z 17005KT 24/18 A2999 RMK A01 T02440177  RH  066%=      5-min Rain = 0
KSE2 150252Z 17006KT 24/18 A2999 RMK A01 T02440177  RH  066%=      5-min Rain = 0
KSE2 150253Z 18005KT 24/18 A2999 RMK A01 T02440177  RH  066%=      5-min Rain = 0
KSE2 150254Z 17004KT 24/18 A2999 RMK A01 T02440176  RH  066%=      5-min Rain = 0
KSE2 150255Z 18006KT 24/18 A2999 RMK A01 T02430176  RH  066%=      5-min Rain = 0
KSE2 150256Z 18006KT 24/18 A2999 RMK A01 T02430176  RH  066%=      5-min Rain = 0
KSE2 150257Z 18006KT 24/18 A30 RMK A01 T02430177  RH  066%=      5-min Rain = 0
KSE2 150258Z 19004KT 24/18 A30 RMK A01 T02430177  RH  066%=      5-min Rain = 0
KSE2 150259Z 18004KT 24/18 A30 RMK A01 T02430176  RH  066%=      5-min Rain = 0
KSE2 150300Z 18004KT 24/18 A30 RMK A01 T02430177  RH  066%=      5-min Rain = 0
KSE2 150301Z 18004KT 24/18 A30 RMK A01 T02430177  RH  066%=      5-min Rain = 0
KSE2 150302Z 17004KT 24/18 A30 RMK A01 T02430176  RH  066%=      5-min Rain = 0
KSE2 150303Z 18004KT 24/18 A30 RMK A01 T02430176  RH  066%=      5-min Rain = 0
KSE2 150304Z 18004KT 24/18 A30 RMK A01 T02430177  RH  067%=      5-min Rain = 0
KSE2 150305Z 18003KT 24/18 A30 RMK A01 T02420176  RH  067%=      5-min Rain = 0
KSE2 150306Z 17003KT 24/18 A30 RMK A01 T02420176  RH  067%=      5-min Rain = 0
KSE2 150307Z 18004KT 24/18 A30 RMK A01 T02420176  RH  067%=      5-min Rain = 0
KSE2 150308Z 19004KT 24/18 A30 RMK A01 T02420176  RH  067%=      5-min Rain = 0
KSE2 150309Z 19004KT 24/18 A30 RMK A01 T02410176  RH  067%=      5-min Rain = 0
KSE2 150310Z 18004KT 24/18 A30 RMK A01 T02410176  RH  067%=      5-min Rain = 0
KSE2 150311Z 18005KT 24/18 A30 RMK A01 T02410176  RH  067%=      5-min Rain = 0
KSE2 150312Z 19004KT 24/18 A30 RMK A01 T02410177  RH  067%=      5-min Rain = 0
KSE2 150313Z 18004KT 24/18 A30 RMK A01 T02410176  RH  067%=      5-min Rain = 0
KSE2 150314Z 19005KT 24/18 A30 RMK A01 T02410177  RH  067%=      5-min Rain = 0
KSE2 150315Z 18004KT 24/18 A30 RMK A01 T02410177  RH  067%=      5-min Rain = 0
KSE2 150316Z 19004KT 24/18 A30 RMK A01 T02400177  RH  067%=      5-min Rain = 0
KSE2 150317Z 19005KT 24/18 A30 RMK A01 T02410177  RH  067%=      5-min Rain = 0
KSE2 150318Z 18005KT 24/18 A30 RMK A01 T02400177  RH  068%=      5-min Rain = 0
KSE2 150319Z 18006KT 24/18 A30 RMK A01 T02400176  RH  068%=      5-min Rain = 0
KSE2 150320Z 18005KT 24/18 A30 RMK A01 T02400177  RH  068%=      5-min Rain = 0
KSE2 150321Z 17005KT 24/18 A30 RMK A01 T02400177  RH  068%=      5-min Rain = 0
KSE2 150322Z 17005KT 24/18 A30 RMK A01 T02400177  RH  068%=      5-min Rain = 0
KSE2 150323Z 16005KT 24/18 A30 RMK A01 T02400177  RH  068%=      5-min Rain = 0
KSE2 150324Z 16005KT 24/18 A30 RMK A01 T02400177  RH  068%=      5-min Rain = 0
KSE2 150325Z 16006KT 24/18 A30 RMK A01 T02390177  RH  068%=      5-min Rain = 0
KSE2 150326Z 16005KT 24/18 A30 RMK A01 T02400177  RH  068%=      5-min Rain = 0
KSE2 150327Z 16006KT 24/18 A30 RMK A01 T02390177  RH  068%=      5-min Rain = 0
KSE2 150328Z 16005KT 24/18 A30 RMK A01 T02390176  RH  068%=      5-min Rain = 0
KSE2 150329Z 16006KT 24/18 A30 RMK A01 T02390177  RH  068%=      5-min Rain = 0
KSE2 150330Z 16005KT 24/18 A30 RMK A01 T02390177  RH  068%=      5-min Rain = 0
KSE2 150331Z 17005KT 24/18 A30 RMK A01 T02390177  RH  068%=      5-min Rain = 0
KSE2 150332Z 16006KT 24/18 A30 RMK A01 T02390177  RH  068%=      5-min Rain = 0
KSE2 150333Z 16006KT 24/18 A30 RMK A01 T02390177  RH  068%=      5-min Rain = 0
KSE2 150334Z 17004KT 24/18 A30 RMK A01 T02390177  RH  068%=      5-min Rain = 0
KSE2 150335Z 17005KT 24/18 A30 RMK A01 T02380177  RH  068%=      5-min Rain = 0
KSE2 150336Z 17006KT 24/18 A30 RMK A01 T02380177  RH  068%=      5-min Rain = 0
KSE2 150337Z 17005KT 24/18 A30 RMK A01 T02380177  RH  068%=      5-min Rain = 0
KSE2 150338Z 17006KT 24/18 A30 RMK A01 T02380177  RH  069%=      5-min Rain = 0
KSE2 150339Z 17005KT 24/18 A30 RMK A01 T02380177  RH  068%=      5-min Rain = 0
KSE2 150340Z 18005KT 24/18 A30 RMK A01 T02380177  RH  069%=      5-min Rain = 0
KSE2 150341Z 17004KT 24/18 A30 RMK A01 T02380177  RH  069%=      5-min Rain = 0
KSE2 150342Z 17005KT 24/18 A30 RMK A01 T02380177  RH  069%=      5-min Rain = 0
KSE2 150343Z 17005KT 24/18 A30 RMK A01 T02380177  RH  069%=      5-min Rain = 0
KSE2 150344Z 18005KT 24/18 A30 RMK A01 T02380177  RH  069%=      5-min Rain = 0
KSE2 150345Z 17005KT 24/18 A30 RMK A01 T02380177  RH  069%=      5-min Rain = 0
KSE2 150346Z 17004KT 24/18 A30 RMK A01 T02380177  RH  069%=      5-min Rain = 0
KSE2 150347Z 17005KT 24/18 A30 RMK A01 T02380177  RH  069%=      5-min Rain = 0
KSE2 150348Z 18006KT 24/18 A30 RMK A01 T02370177  RH  069%=      5-min Rain = 0
KSE2 150349Z 18005KT 24/18 A30 RMK A01 T02370177  RH  069%=      5-min Rain = 0
KSE2 150350Z 18004KT 24/18 A30 RMK A01 T02370177  RH  069%=      5-min Rain = 0
KSE2 150351Z 18004KT 24/18 A30 RMK A01 T02370177  RH  069%=      5-min Rain = 0
KSE2 150352Z 18005KT 24/18 A30 RMK A01 T02370177  RH  069%=      5-min Rain = 0
KSE2 150353Z 18004KT 24/18 A30 RMK A01 T02360177  RH  069%=      5-min Rain = 0
KSE2 150354Z 18004KT 24/18 A30 RMK A01 T02360177  RH  069%=      5-min Rain = 0
KSE2 150355Z 17004KT 24/18 A30 RMK A01 T02360177  RH  069%=      5-min Rain = 0
KSE2 150356Z 18004KT 24/18 A30 RMK A01 T02360177  RH  069%=      5-min Rain = 0
KSE2 150357Z 18005KT 24/18 A30 RMK A01 T02360177  RH  069%=      5-min Rain = 0
KSE2 150358Z 18005KT 24/18 A30 RMK A01 T02360177  RH  070%=      5-min Rain = 0
KSE2 150359Z 17004KT 24/18 A30 RMK A01 T02360177  RH  070%=      5-min Rain = 0
KSE2 150400Z 18004KT 24/18 A30 RMK A01 T02350177  RH  070%=      5-min Rain = 0
KSE2 150401Z 17004KT 24/18 A30 RMK A01 T02350177  RH  070%=      5-min Rain = 0
KSE2 150402Z 17004KT 24/18 A30 RMK A01 T02350177  RH  070%=      5-min Rain = 0
KSE2 150403Z 16004KT 24/18 A30 RMK A01 T02350177  RH  070%=      5-min Rain = 0
KSE2 150404Z 16004KT 24/18 A2999 RMK A01 T02350177  RH  070%=      5-min Rain = 0
KSE2 150405Z 16004KT 24/18 A2999 RMK A01 T02350177  RH  070%=      5-min Rain = 0
KSE2 150406Z 16004KT 24/18 A2999 RMK A01 T02350176  RH  070%=      5-min Rain = 0
KSE2 150407Z 16004KT 23/18 A2999 RMK A01 T02340177  RH  070%=      5-min Rain = 0
KSE2 150408Z 16003KT 23/18 A2999 RMK A01 T02340176  RH  070%=      5-min Rain = 0
KSE2 150409Z 17004KT 23/18 A30 RMK A01 T02340177  RH  070%=      5-min Rain = 0
KSE2 150410Z 18003KT 23/18 A30 RMK A01 T02340176  RH  070%=      5-min Rain = 0
KSE2 150411Z 17004KT 23/18 A30 RMK A01 T02340177  RH  070%=      5-min Rain = 0
KSE2 150412Z 18004KT 23/18 A30 RMK A01 T02340177  RH  070%=      5-min Rain = 0
KSE2 150413Z 18004KT 23/18 A30 RMK A01 T02340177  RH  070%=      5-min Rain = 0
KSE2 150414Z 18004KT 23/18 A30 RMK A01 T02340177  RH  070%=      5-min Rain = 0
KSE2 150415Z 19004KT 23/18 A30 RMK A01 T02340177  RH  070%=      5-min Rain = 0
KSE2 150416Z 19004KT 23/18 A30 RMK A01 T02340177  RH  070%=      5-min Rain = 0
KSE2 150417Z 19004KT 23/18 A30 RMK A01 T02330176  RH  070%=      5-min Rain = 0
KSE2 150418Z 19005KT 23/18 A30 RMK A01 T02340177  RH  070%=      5-min Rain = 0
KSE2 150419Z 19005KT 23/18 A30 RMK A01 T02330176  RH  070%=      5-min Rain = 0
KSE2 150420Z 19004KT 23/18 A30 RMK A01 T02340177  RH  070%=      5-min Rain = 0
KSE2 150421Z 19004KT 23/18 A30 RMK A01 T02340177  RH  070%=      5-min Rain = 0
KSE2 150422Z 19005KT 23/18 A30 RMK A01 T02330176  RH  070%=      5-min Rain = 0
KSE2 150423Z 19005KT 23/18 A30 RMK A01 T02340177  RH  070%=      5-min Rain = 0
KSE2 150424Z 19004KT 23/18 A30 RMK A01 T02340177  RH  070%=      5-min Rain = 0
KSE2 150425Z 19004KT 23/18 A30 RMK A01 T02340177  RH  070%=      5-min Rain = 0
KSE2 150426Z 19005KT 23/18 A30 RMK A01 T02340177  RH  071%=      5-min Rain = 0
KSE2 150427Z 19004KT 23/18 A30 RMK A01 T02330177  RH  071%=      5-min Rain = 0
KSE2 150428Z 18005KT 23/18 A30 RMK A01 T02330177  RH  071%=      5-min Rain = 0
KSE2 150429Z 18004KT 23/18 A30 RMK A01 T02330177  RH  071%=      5-min Rain = 0
KSE2 150430Z 19004KT 23/18 A30 RMK A01 T02330177  RH  071%=      5-min Rain = 0
KSE2 150431Z 18005KT 23/18 A30 RMK A01 T02330177  RH  071%=      5-min Rain = 0
KSE2 150432Z 17004KT 23/18 A30 RMK A01 T02330177  RH  071%=      5-min Rain = 0
KSE2 150433Z 17005KT 23/18 A30 RMK A01 T02330177  RH  071%=      5-min Rain = 0
KSE2 150434Z 17004KT 23/18 A30 RMK A01 T02330177  RH  071%=      5-min Rain = 0
KSE2 150435Z 18005KT 23/18 A30 RMK A01 T02330177  RH  071%=      5-min Rain = 0
KSE2 150436Z 17005KT 23/18 A30 RMK A01 T02320177  RH  071%=      5-min Rain = 0
KSE2 150437Z 17004KT 23/18 A30 RMK A01 T02320177  RH  071%=      5-min Rain = 0
KSE2 150438Z 18004KT 23/18 A30 RMK A01 T02320177  RH  071%=      5-min Rain = 0
KSE2 150439Z 18005KT 23/18 A30 RMK A01 T02320177  RH  071%=      5-min Rain = 0
KSE2 150440Z 18005KT 23/18 A30 RMK A01 T02320177  RH  071%=      5-min Rain = 0
KSE2 150441Z 18004KT 23/18 A30 RMK A01 T02320177  RH  071%=      5-min Rain = 0
KSE2 150442Z 18005KT 23/18 A30 RMK A01 T02320177  RH  071%=      5-min Rain = 0
KSE2 150443Z 19005KT 23/18 A30 RMK A01 T02320177  RH  071%=      5-min Rain = 0
KSE2 150444Z 19004KT 23/18 A30 RMK A01 T02320177  RH  071%=      5-min Rain = 0
KSE2 150445Z 19004KT 23/18 A30 RMK A01 T02320177  RH  071%=      5-min Rain = 0
KSE2 150446Z 20004KT 23/18 A30 RMK A01 T02320177  RH  071%=      5-min Rain = 0
KSE2 150447Z 20004KT 23/18 A30 RMK A01 T02320177  RH  071%=      5-min Rain = 0
KSE2 150448Z 20003KT 23/18 A30 RMK A01 T02320177  RH  071%=      5-min Rain = 0
KSE2 150449Z 20004KT 23/18 A30 RMK A01 T02320177  RH  071%=      5-min Rain = 0
KSE2 150450Z 19004KT 23/18 A30 RMK A01 T02320177  RH  071%=      5-min Rain = 0
KSE2 150451Z 19004KT 23/18 A30 RMK A01 T02320177  RH  071%=      5-min Rain = 0
KSE2 150452Z 18004KT 23/18 A2999 RMK A01 T02320177  RH  071%=      5-min Rain = 0
KSE2 150453Z 18004KT 23/18 A2999 RMK A01 T02320177  RH  071%=      5-min Rain = 0
KSE2 150454Z 19004KT 23/18 A30 RMK A01 T02320177  RH  071%=      5-min Rain = 0
KSE2 150455Z 19003KT 23/18 A30 RMK A01 T02310177  RH  071%=      5-min Rain = 0
KSE2 150456Z 20004KT 23/18 A30 RMK A01 T02320177  RH  071%=      5-min Rain = 0
KSE2 150457Z 20003KT 23/18 A30 RMK A01 T02310177  RH  072%=      5-min Rain = 0
KSE2 150458Z 20004KT 23/18 A30 RMK A01 T02310177  RH  072%=      5-min Rain = 0
KSE2 150459Z 21003KT 23/18 A30 RMK A01 T02310177  RH  072%=      5-min Rain = 0

Page generated in 0.0847 seconds.